Provisional Data: Long Run near Gaines, PA


Please select a monitoring station.
Please select start date.
Please select start date.

Toggle Unit: C/F Toggle Unit: C/F
Sample Time Temperature (C) Temperature (F) Specific Conductivity (mS/cm) pH   Turbidity (NTU+) DO (mg/L)
3/7/2021 12:00:00 AM 0.64 33.152 0.098 7.18 7.96 13.66
3/7/2021 12:15:00 AM 0.62 33.116 0.098 7.17 7.85 13.67
3/7/2021 12:30:00 AM 0.6 33.08 0.098 7.18 7.92 13.68
3/7/2021 12:45:00 AM 0.58 33.044 0.098 7.18 8 13.69
3/7/2021 1:00:00 AM 0.56 33.008 0.098 7.17 8.18 13.7
3/7/2021 1:15:00 AM 0.54 32.972 0.098 7.17 8.17 13.71
3/7/2021 1:30:00 AM 0.52 32.936 0.098 7.17 7.81 13.71
3/7/2021 1:45:00 AM 0.51 32.918 0.098 7.17 8.06 13.72
3/7/2021 2:00:00 AM 0.49 32.882 0.098 7.18 7.81 13.72
3/7/2021 2:15:00 AM 0.46 32.828 0.098 7.17 7.98 13.73
3/7/2021 2:30:00 AM 0.43 32.774 0.098 7.17 7.94 13.74
3/7/2021 2:45:00 AM 0.4 32.72 0.098 7.17 8.05 13.75
3/7/2021 3:00:00 AM 0.36 32.648 0.097 7.17 8.24 13.77
3/7/2021 3:15:00 AM 0.31 32.558 0.098 7.17 8.08 13.78
3/7/2021 3:30:00 AM 0.26 32.468 0.098 7.16 8.34 13.8
3/7/2021 3:45:00 AM 0.21 32.378 0.097 7.16 8.26 13.82
3/7/2021 4:00:00 AM 0.16 32.288 0.098 7.16 8.18 13.84
3/7/2021 4:15:00 AM 0.11 32.198 0.097 7.15 8.09 13.86
3/7/2021 4:30:00 AM 0.06 32.108 0.098 7.15 8.34 13.88
3/7/2021 4:45:00 AM 0.01 32.018 0.098 7.15 7.83 13.91
3/7/2021 5:00:00 AM -0.04 31.928 0.098 7.15 8.16 13.93
3/7/2021 5:15:00 AM -0.08 31.856 0.097 7.16 8.01 13.95
3/7/2021 5:30:00 AM -0.13 31.766 0.098 7.16 8.22 13.98
3/7/2021 5:45:00 AM -0.09 31.838 0.097 7.16 8.09 14
3/7/2021 6:00:00 AM -0.09 31.838 0.098 7.15 7.94 14
3/7/2021 6:15:00 AM -0.09 31.838 0.098 7.16 8.25 14.01
3/7/2021 6:30:00 AM -0.09 31.838 0.098 7.17 7.91 14.02
3/7/2021 6:45:00 AM -0.09 31.838 0.098 7.16 7.99 14.04
3/7/2021 7:00:00 AM -0.09 31.838 0.098 7.17 7.79 14.07
3/7/2021 7:15:00 AM -0.09 31.838 0.098 7.2 7.84 14.12
3/7/2021 7:30:00 AM -0.09 31.838 0.098 7.21 7.85 14.17
3/7/2021 7:45:00 AM -0.09 31.838 0.097 7.23 7.66 14.22
3/7/2021 8:00:00 AM -0.09 31.838 0.097 7.26 7.93 14.27
3/7/2021 8:15:00 AM -0.08 31.856 0.097 7.27 8.38 14.31
3/7/2021 8:30:00 AM -0.08 31.856 0.097 7.28 8.06 14.34
3/7/2021 8:45:00 AM -0.07 31.874 0.096 7.3 8.44 14.36
3/7/2021 9:00:00 AM -0.06 31.892 0.096 7.3 8.62 14.37
3/7/2021 9:15:00 AM -0.06 31.892 0.095 7.3 8.63 14.38
3/7/2021 9:30:00 AM -0.03 31.946 0.094 7.3 9.07 14.38
3/7/2021 9:45:00 AM 0.01 32.018 0.094 7.31 8.31 14.37
3/7/2021 10:00:00 AM 0.07 32.126 0.094 7.29 8.45 14.37
3/7/2021 10:15:00 AM 0.23 32.414 0.094 7.3 8.22 14.34
3/7/2021 10:30:00 AM 0.4 32.72 0.094 7.31 8.04 14.31
3/7/2021 10:45:00 AM 0.64 33.152 0.094 7.34 8.1 14.25
3/7/2021 11:00:00 AM 0.91 33.638 0.096 7.35 8.39 14.16
3/7/2021 11:15:00 AM 1.15 34.07 0.096 7.36 7.87 14.09
3/7/2021 11:30:00 AM 1.38 34.484 0.096 7.37 7.95 14.02
3/7/2021 11:45:00 AM 1.59 34.862 0.095 7.37 7.97 13.95
3/7/2021 12:00:00 PM 1.82 35.276 0.095 7.38 8.27 13.87
3/7/2021 12:15:00 PM 2.05 35.69 0.094 7.39 7.85 13.78
3/7/2021 12:30:00 PM 2.28 36.104 0.094 7.39 7.93 13.68
3/7/2021 12:45:00 PM 2.49 36.482 0.094 7.4 8.01 13.6
3/7/2021 1:00:00 PM 2.68 36.824 0.093 7.4 7.79 13.53
3/7/2021 1:15:00 PM 2.85 37.13 0.092 7.4 7.87 13.46
3/7/2021 1:30:00 PM 3 37.4 0.092 7.4 7.92 13.4
3/7/2021 1:45:00 PM 3.12 37.616 0.092 7.4 7.86 13.34
3/7/2021 2:00:00 PM 3.23 37.814 0.092 7.4 7.95 13.29
3/7/2021 2:15:00 PM 3.32 37.976 0.092 7.4 7.63 13.25
3/7/2021 2:30:00 PM 3.36 38.048 0.092 7.4 7.59 13.21
3/7/2021 2:45:00 PM 3.39 38.102 0.092 7.39 7.69 13.18
3/7/2021 3:00:00 PM 3.37 38.066 0.092 7.4 7.69 13.18
3/7/2021 3:15:00 PM 3.33 37.994 0.093 7.39 7.94 13.17
3/7/2021 3:30:00 PM 3.25 37.85 0.093 7.38 7.81 13.17
3/7/2021 3:45:00 PM 3.14 37.652 0.094 7.38 8.09 13.18
3/7/2021 4:00:00 PM 3.01 37.418 0.094 7.37 7.98 13.2
3/7/2021 4:15:00 PM 2.86 37.148 0.095 7.36 8 13.21
3/7/2021 4:30:00 PM 2.69 36.842 0.095 7.35 8.07 13.24
3/7/2021 4:45:00 PM 2.53 36.554 0.096 7.34 7.89 13.27
3/7/2021 5:00:00 PM 2.4 36.32 0.096 7.32 7.93 13.29
3/7/2021 5:15:00 PM 2.29 36.122 0.096 7.31 7.97 13.32
3/7/2021 5:30:00 PM 2.18 35.924 0.096 7.3 7.85 13.34
3/7/2021 5:45:00 PM 2.08 35.744 0.096 7.29 7.93 13.35
3/7/2021 6:00:00 PM 1.98 35.564 0.097 7.27 7.91 13.36
3/7/2021 6:15:00 PM 1.9 35.42 0.097 7.24 7.9 13.35
3/7/2021 6:30:00 PM 1.82 35.276 0.097 7.23 7.91 13.34
3/7/2021 6:45:00 PM 1.75 35.15 0.097 7.2 7.82 13.34
3/7/2021 7:00:00 PM 1.67 35.006 0.097 7.19 7.9 13.34
3/7/2021 7:15:00 PM 1.6 34.88 0.097 7.17 7.96 13.35
3/7/2021 7:30:00 PM 1.52 34.736 0.097 7.18 8.02 13.38
3/7/2021 7:45:00 PM 1.44 34.592 0.097 7.16 8.06 13.4
3/7/2021 8:00:00 PM 1.35 34.43 0.097 7.16 7.93 13.43
3/7/2021 8:15:00 PM 1.27 34.286 0.097 7.15 7.87 13.46
3/7/2021 8:30:00 PM 1.19 34.142 0.097 7.15 8.07 13.49
3/7/2021 8:45:00 PM 1.1 33.98 0.098 7.15 7.85 13.52
3/7/2021 9:00:00 PM 1.02 33.836 0.097 7.15 7.86 13.55
3/7/2021 9:15:00 PM 0.95 33.71 0.097 7.14 7.91 13.58
3/7/2021 9:30:00 PM 0.87 33.566 0.098 7.15 7.99 13.62
3/7/2021 9:45:00 PM 0.79 33.422 0.097 7.14 7.72 13.65
3/7/2021 10:00:00 PM 0.72 33.296 0.098 7.14 7.8 13.67
3/7/2021 10:15:00 PM 0.65 33.17 0.097 7.14 7.74 13.7
3/7/2021 10:30:00 PM 0.58 33.044 0.098 7.14 7.85 13.73
3/7/2021 10:45:00 PM 0.52 32.936 0.098 7.13 7.88 13.76
3/7/2021 11:00:00 PM 0.45 32.81 0.098 7.14 7.89 13.79
3/7/2021 11:15:00 PM 0.38 32.684 0.098 7.14 7.86 13.81
3/7/2021 11:30:00 PM 0.32 32.576 0.097 7.14 7.94 13.84
3/7/2021 11:45:00 PM 0.26 32.468 0.098 7.14 7.91 13.87
3/8/2021 12:00:00 AM 0.2 32.36 0.097 7.13 7.8 13.89
3/8/2021 12:15:00 AM 0.14 32.252 0.098 7.14 7.77 13.91
3/8/2021 12:30:00 AM 0.09 32.162 0.098 7.14 8.1 13.93
3/8/2021 12:45:00 AM 0.03 32.054 0.097 7.13 8.02 13.95
3/8/2021 1:00:00 AM -0.02 31.964 0.097 7.14 7.9 13.98
3/8/2021 1:15:00 AM -0.07 31.874 0.097 7.15 8.09 13.99
3/8/2021 1:30:00 AM -0.12 31.784 0.097 7.15 7.88 14.02
3/8/2021 1:45:00 AM -0.1 31.82 0.098 7.15 7.28 14.05
3/8/2021 2:00:00 AM -0.09 31.838 0.097 7.16 7.02 14.06
3/8/2021 2:15:00 AM -0.09 31.838 0.097 7.17 7.14 14.06
3/8/2021 2:30:00 AM -0.09 31.838 0.097 7.18 7.02 14.08
3/8/2021 2:45:00 AM -0.09 31.838 0.097 7.17 6.93 14.08
3/8/2021 3:00:00 AM -0.09 31.838 0.097 7.18 6.96 14.07
3/8/2021 3:15:00 AM -0.09 31.838 0.097 7.18 6.95 14.08
3/8/2021 3:30:00 AM -0.09 31.838 0.097 7.19 6.99 14.07
3/8/2021 3:45:00 AM -0.09 31.838 0.097 7.19 6.83 14.08
3/8/2021 4:00:00 AM -0.09 31.838 0.097 7.19 6.99 14.08
3/8/2021 4:15:00 AM -0.09 31.838 0.097 7.2 7.14 14.08
3/8/2021 4:30:00 AM -0.09 31.838 0.097 7.2 7.32 14.07
3/8/2021 4:45:00 AM -0.09 31.838 0.097 7.19 7.13 14.07
3/8/2021 5:00:00 AM -0.09 31.838 0.097 7.19 7.18 14.07
3/8/2021 5:15:00 AM -0.09 31.838 0.097 7.19 7.43 14.07
3/8/2021 5:30:00 AM -0.09 31.838 0.097 7.19 7.4 14.06
3/8/2021 5:45:00 AM -0.09 31.838 0.097 7.19 7.35 14.06
3/8/2021 6:00:00 AM -0.09 31.838 0.097 7.19 7.4 14.06
3/8/2021 6:15:00 AM -0.09 31.838 0.097 7.19 7.49 14.06
3/8/2021 6:30:00 AM -0.09 31.838 0.097 7.18 7.53 14.06
3/8/2021 6:45:00 AM -0.09 31.838 0.097 7.19 7.29 14.06
3/8/2021 7:00:00 AM -0.09 31.838 0.097 7.19 7.43 14.09
3/8/2021 7:15:00 AM -0.09 31.838 0.097 7.2 7.26 14.13
3/8/2021 7:30:00 AM -0.09 31.838 0.097 7.21 7.51 14.19
3/8/2021 7:45:00 AM -0.09 31.838 0.096 7.22 7.28 14.24
3/8/2021 8:00:00 AM -0.08 31.856 0.096 7.23 7.28 14.3
3/8/2021 8:15:00 AM -0.08 31.856 0.096 7.24 7.49 14.33
3/8/2021 8:30:00 AM -0.08 31.856 0.096 7.25 7.35 14.37
3/8/2021 8:45:00 AM -0.07 31.874 0.095 7.26 7.18 14.39
3/8/2021 9:00:00 AM -0.07 31.874 0.095 7.27 7.23 14.41
3/8/2021 9:15:00 AM -0.07 31.874 0.094 7.27 7.15 14.42
3/8/2021 9:30:00 AM -0.07 31.874 0.094 7.28 6.96 14.42
3/8/2021 9:45:00 AM -0.07 31.874 0.093 7.29 7.07 14.42
3/8/2021 10:00:00 AM -0.07 31.874 0.093 7.3 6.95 14.41
3/8/2021 10:15:00 AM -0.04 31.928 0.092 7.31 7.08 14.41
3/8/2021 10:30:00 AM -0.01 31.982 0.092 7.33 7.22 14.4
3/8/2021 10:45:00 AM 0.04 32.072 0.092 7.32 7.56 14.38
3/8/2021 11:00:00 AM 0.04 32.072 0.093 7.28 7.56 14.37
3/8/2021 11:15:00 AM 0.06 32.108 0.094 7.27 7.56 14.36
3/8/2021 11:30:00 AM 0.17 32.306 0.094 7.28 7.36 14.35
3/8/2021 11:45:00 AM 0.25 32.45 0.094 7.29 7.24 14.33
3/8/2021 12:00:00 PM 0.36 32.648 0.094 7.3 7.04 14.32
3/8/2021 12:15:00 PM 0.49 32.882 0.095 7.31 7.02 14.29
3/8/2021 12:30:00 PM 0.56 33.008 0.094 7.32 7.13 14.25
3/8/2021 12:45:00 PM 0.67 33.206 0.094 7.33 6.86 14.23
3/8/2021 1:00:00 PM 0.82 33.476 0.093 7.33 6.91 14.2
3/8/2021 1:15:00 PM 0.95 33.71 0.093 7.34 6.93 14.16
3/8/2021 1:30:00 PM 1.08 33.944 0.092 7.35 6.94 14.12
3/8/2021 1:45:00 PM 1.19 34.142 0.091 7.35 6.81 14.08
3/8/2021 2:00:00 PM 1.28 34.304 0.091 7.36 6.88 14.04
3/8/2021 2:15:00 PM 1.35 34.43 0.091 7.36 6.9 14.01
3/8/2021 2:30:00 PM 1.41 34.538 0.091 7.36 6.91 13.99
3/8/2021 2:45:00 PM 1.47 34.646 0.091 7.36 6.99 13.97
3/8/2021 3:00:00 PM 1.51 34.718 0.091 7.36 6.83 13.94
3/8/2021 3:15:00 PM 1.55 34.79 0.092 7.36 6.84 13.92
3/8/2021 3:30:00 PM 1.59 34.862 0.092 7.36 6.96 13.89
3/8/2021 3:45:00 PM 1.65 34.97 0.092 7.37 6.73 13.86
3/8/2021 4:00:00 PM 1.67 35.006 0.093 7.36 6.86 13.84
3/8/2021 4:15:00 PM 1.67 35.006 0.093 7.37 6.96 13.83
3/8/2021 4:30:00 PM 1.65 34.97 0.093 7.36 6.9 13.82
3/8/2021 4:45:00 PM 1.65 34.97 0.094 7.36 6.75 13.81
3/8/2021 5:00:00 PM 1.64 34.952 0.094 7.36 7.02 13.78
3/8/2021 5:15:00 PM 1.63 34.934 0.094 7.34 6.84 13.74
3/8/2021 5:30:00 PM 1.61 34.898 0.095 7.34 6.77 13.71
3/8/2021 5:45:00 PM 1.57 34.826 0.095 7.32 6.89 13.68
3/8/2021 6:00:00 PM 1.52 34.736 0.095 7.31 6.84 13.64
3/8/2021 6:15:00 PM 1.48 34.664 0.095 7.29 6.77 13.59
3/8/2021 6:30:00 PM 1.45 34.61 0.096 7.27 6.83 13.55
3/8/2021 6:45:00 PM 1.42 34.556 0.096 7.26 6.91 13.52
3/8/2021 7:00:00 PM 1.39 34.502 0.096 7.25 6.94 13.49
3/8/2021 7:15:00 PM 1.35 34.43 0.096 7.23 6.93 13.49
3/8/2021 7:30:00 PM 1.32 34.376 0.097 7.23 6.91 13.48
3/8/2021 7:45:00 PM 1.28 34.304 0.097 7.23 6.98 13.49
3/8/2021 8:00:00 PM 1.23 34.214 0.097 7.22 6.89 13.49
3/8/2021 8:15:00 PM 1.19 34.142 0.097 7.21 6.95 13.5
3/8/2021 8:30:00 PM 1.15 34.07 0.097 7.21 6.96 13.51
3/8/2021 8:45:00 PM 1.11 33.998 0.097 7.2 6.8 13.53
3/8/2021 9:00:00 PM 1.07 33.926 0.097 7.2 7.01 13.53
3/8/2021 9:15:00 PM 1.04 33.872 0.097 7.2 6.73 13.54
3/8/2021 9:30:00 PM 1.01 33.818 0.097 7.2 6.85 13.56
3/8/2021 9:45:00 PM 0.98 33.764 0.097 7.2 6.87 13.57
3/8/2021 10:00:00 PM 0.96 33.728 0.097 7.2 6.94 13.58
3/8/2021 10:15:00 PM 0.95 33.71 0.097 7.19 6.81 13.58
3/8/2021 10:30:00 PM 0.94 33.692 0.097 7.19 6.84 13.59
3/8/2021 10:45:00 PM 0.94 33.692 0.097 7.19 6.79 13.59
3/8/2021 11:00:00 PM 0.94 33.692 0.097 7.19 6.8 13.59
3/8/2021 11:15:00 PM 0.94 33.692 0.097 7.19 6.99 13.59
3/8/2021 11:30:00 PM 0.94 33.692 0.097 7.19 6.89 13.58
3/8/2021 11:45:00 PM 0.93 33.674 0.097 7.19 6.83 13.59
3/9/2021 12:00:00 AM 0.92 33.656 0.097 7.19 6.84 13.59
3/9/2021 12:15:00 AM 0.91 33.638 0.097 7.2 6.82 13.59
3/9/2021 12:30:00 AM 0.89 33.602 0.097 7.19 6.99 13.59
3/9/2021 12:45:00 AM 0.88 33.584 0.096 7.19 6.9 13.6
3/9/2021 1:00:00 AM 0.88 33.584 0.097 7.2 6.91 13.6
3/9/2021 1:15:00 AM 0.88 33.584 0.096 7.19 6.81 13.6
3/9/2021 1:30:00 AM 0.86 33.548 0.096 7.18 6.92 13.6
3/9/2021 1:45:00 AM 0.84 33.512 0.096 7.18 6.94 13.6
3/9/2021 2:00:00 AM 0.82 33.476 0.096 7.18 6.77 13.61
3/9/2021 2:15:00 AM 0.79 33.422 0.096 7.18 7 13.62
3/9/2021 2:30:00 AM 0.77 33.386 0.096 7.18 6.75 13.63
3/9/2021 2:45:00 AM 0.76 33.368 0.096 7.18 6.82 13.63
3/9/2021 3:00:00 AM 0.74 33.332 0.096 7.18 6.72 13.64
3/9/2021 3:15:00 AM 0.73 33.314 0.096 7.18 6.83 13.64
3/9/2021 3:30:00 AM 0.71 33.278 0.096 7.18 6.81 13.64
3/9/2021 3:45:00 AM 0.7 33.26 0.096 7.18 6.76 13.65
3/9/2021 4:00:00 AM 0.68 33.224 0.096 7.18 6.67 13.66
3/9/2021 4:15:00 AM 0.66 33.188 0.096 7.18 6.73 13.66
3/9/2021 4:30:00 AM 0.64 33.152 0.096 7.17 6.69 13.67
3/9/2021 4:45:00 AM 0.62 33.116 0.096 7.18 6.79 13.68
3/9/2021 5:00:00 AM 0.6 33.08 0.096 7.18 6.76 13.69
3/9/2021 5:15:00 AM 0.58 33.044 0.096 7.18 7.16 13.7
3/9/2021 5:30:00 AM 0.56 33.008 0.096 7.18 6.78 13.71
3/9/2021 5:45:00 AM 0.54 32.972 0.095 7.17 6.86 13.72
3/9/2021 6:00:00 AM 0.52 32.936 0.095 7.17 6.82 13.73
3/9/2021 6:15:00 AM 0.5 32.9 0.096 7.17 6.89 13.74
3/9/2021 6:30:00 AM 0.48 32.864 0.096 7.17 6.67 13.76
3/9/2021 6:45:00 AM 0.47 32.846 0.095 7.18 6.65 13.78
3/9/2021 7:00:00 AM 0.46 32.828 0.095 7.18 6.59 13.84
3/9/2021 7:15:00 AM 0.45 32.81 0.095 7.19 6.7 13.91
3/9/2021 7:30:00 AM 0.46 32.828 0.095 7.21 6.74 13.98
3/9/2021 7:45:00 AM 0.47 32.846 0.095 7.22 6.67 14.04
3/9/2021 8:00:00 AM 0.49 32.882 0.095 7.24 6.73 14.09
3/9/2021 8:15:00 AM 0.52 32.936 0.094 7.26 6.63 14.13
3/9/2021 8:30:00 AM 0.57 33.026 0.094 7.27 6.76 14.16
3/9/2021 8:45:00 AM 0.64 33.152 0.094 7.29 6.57 14.18
3/9/2021 9:00:00 AM 0.74 33.332 0.094 7.3 6.65 14.18
3/9/2021 9:15:00 AM 0.86 33.548 0.094 7.31 6.69 14.17
3/9/2021 9:30:00 AM 1.01 33.818 0.094 7.33 6.62 14.14
3/9/2021 9:45:00 AM 1.2 34.16 0.094 7.35 6.64 14.1
3/9/2021 10:00:00 AM 1.44 34.592 0.094 7.36 6.63 14.05
3/9/2021 10:15:00 AM 1.71 35.078 0.093 7.38 6.57 13.99
3/9/2021 10:30:00 AM 1.99 35.582 0.093 7.4 6.75 13.91
3/9/2021 10:45:00 AM 2.25 36.05 0.093 7.41 6.57 13.83
3/9/2021 11:00:00 AM 2.52 36.536 0.093 7.42 6.56 13.74
3/9/2021 11:15:00 AM 2.79 37.022 0.092 7.43 6.69 13.64
3/9/2021 11:30:00 AM 3.07 37.526 0.092 7.44 6.6 13.55
3/9/2021 11:45:00 AM 3.35 38.03 0.092 7.45 6.67 13.45
3/9/2021 12:00:00 PM 3.64 38.552 0.092 7.45 6.82 13.35
3/9/2021 12:15:00 PM 3.89 39.002 0.092 7.46 6.88 13.26
3/9/2021 12:30:00 PM 4.14 39.452 0.092 7.47 7.03 13.17
3/9/2021 12:45:00 PM 4.38 39.884 0.092 7.48 6.97 13.08
3/9/2021 1:00:00 PM 4.6 40.28 0.092 7.47 6.9 13
3/9/2021 1:15:00 PM 4.8 40.64 0.092 7.48 6.9 12.92
3/9/2021 1:30:00 PM 4.97 40.946 0.092 7.48 7.16 12.84
3/9/2021 1:45:00 PM 5.12 41.216 0.093 7.48 7.4 12.78
3/9/2021 2:00:00 PM 5.25 41.45 0.093 7.48 7.24 12.72
3/9/2021 2:15:00 PM 5.35 41.63 0.094 7.48 7.23 12.67
3/9/2021 2:30:00 PM 5.42 41.756 0.095 7.47 7.12 12.63
3/9/2021 2:45:00 PM 5.47 41.846 0.095 7.47 7.4 12.6
3/9/2021 3:00:00 PM 5.48 41.864 0.095 7.47 7.49 12.57
3/9/2021 3:15:00 PM 5.45 41.81 0.096 7.45 10.75 12.56
3/9/2021 3:30:00 PM 5.37 41.666 0.096 7.46 7.12 12.56
3/9/2021 3:45:00 PM 5.26 41.468 0.096 7.44 7.11 12.56
3/9/2021 4:00:00 PM 5.12 41.216 0.096 7.44 7.15 12.56
3/9/2021 4:15:00 PM 4.96 40.928 0.096 7.43 7.09 12.57
3/9/2021 4:30:00 PM 4.78 40.604 0.096 7.42 7.38 12.59
3/9/2021 4:45:00 PM 4.59 40.262 0.096 7.4 7.43 12.61
3/9/2021 5:00:00 PM 4.42 39.956 0.096 7.38 7.28 12.64
3/9/2021 5:15:00 PM 4.27 39.686 0.096 7.38 7.23 12.66
3/9/2021 5:30:00 PM 4.14 39.452 0.096 7.37 7.48 12.67
3/9/2021 5:45:00 PM 4 39.2 0.096 7.36 7.51 12.68
3/9/2021 6:00:00 PM 3.89 39.002 0.096 7.34 7.79 12.68
3/9/2021 6:15:00 PM 3.78 38.804 0.096 7.32 7.42 12.68
3/9/2021 6:30:00 PM 3.68 38.624 0.096 7.3 7.67 12.67
3/9/2021 6:45:00 PM 3.6 38.48 0.096 7.29 8.02 12.67
3/9/2021 7:00:00 PM 3.51 38.318 0.096 7.28 8.66 12.69
3/9/2021 7:15:00 PM 3.42 38.156 0.097 7.26 9.34 12.71
3/9/2021 7:30:00 PM 3.32 37.976 0.098 7.23 9.84 12.74
3/9/2021 7:45:00 PM 3.23 37.814 0.099 7.21 10.12 12.78
3/9/2021 8:00:00 PM 3.13 37.634 0.1 7.2 10.64 12.81
3/9/2021 8:15:00 PM 3.03 37.454 0.101 7.2 11.57 12.85
3/9/2021 8:30:00 PM 2.94 37.292 0.103 7.19 12.29 12.88
3/9/2021 8:45:00 PM 2.85 37.13 0.104 7.19 12.83 12.92
3/9/2021 9:00:00 PM 2.75 36.95 0.104 7.19 13.45 12.96
3/9/2021 9:15:00 PM 2.63 36.734 0.105 7.18 13.13 13.01
3/9/2021 9:30:00 PM 2.49 36.482 0.105 7.18 13.07 13.06
3/9/2021 9:45:00 PM 2.34 36.212 0.106 7.17 13.41 13.13
3/9/2021 10:00:00 PM 2.2 35.96 0.105 7.17 13.91 13.18
3/9/2021 10:15:00 PM 2.07 35.726 0.105 7.17 13.9 13.24
3/9/2021 10:30:00 PM 1.96 35.528 0.104 7.15 14.41 13.29
3/9/2021 10:45:00 PM 1.87 35.366 0.103 7.16 15.25 13.32
3/9/2021 11:00:00 PM 1.79 35.222 0.103 7.16 15.95 13.36
3/9/2021 11:15:00 PM 1.72 35.096 0.102 7.16 15.58 13.38
3/9/2021 11:30:00 PM 1.67 35.006 0.102 7.16 15.46 13.4
3/9/2021 11:45:00 PM 1.62 34.916 0.102 7.17 15.79 13.42
3/10/2021 12:00:00 AM 1.57 34.826 0.102 7.17 15.98 13.44
3/10/2021 12:15:00 AM 1.52 34.736 0.101 7.17 15.76 13.46
3/10/2021 12:30:00 AM 1.48 34.664 0.101 7.18 15.08 13.47
3/10/2021 12:45:00 AM 1.43 34.574 0.101 7.19 14.69 13.49
3/10/2021 1:00:00 AM 1.39 34.502 0.101 7.19 14.76 13.5
3/10/2021 1:15:00 AM 1.35 34.43 0.1 7.18 14.51 13.52
3/10/2021 1:30:00 AM 1.3 34.34 0.101 7.18 13.81 13.54
3/10/2021 1:45:00 AM 1.26 34.268 0.1 7.19 13.65 13.55
3/10/2021 2:00:00 AM 1.22 34.196 0.1 7.19 13.53 13.57
3/10/2021 2:15:00 AM 1.18 34.124 0.1 7.19 13.11 13.59
3/10/2021 2:30:00 AM 1.14 34.052 0.1 7.19 12.53 13.6
3/10/2021 2:45:00 AM 1.1 33.98 0.1 7.19 12.63 13.61
3/10/2021 3:00:00 AM 1.06 33.908 0.1 7.19 12.3 13.63
3/10/2021 3:15:00 AM 1.03 33.854 0.099 7.19 12.66 13.64
3/10/2021 3:30:00 AM 1 33.8 0.099 7.19 11.82 13.65
3/10/2021 3:45:00 AM 0.96 33.728 0.099 7.19 11.61 13.66
3/10/2021 4:00:00 AM 0.93 33.674 0.099 7.19 11.46 13.68
3/10/2021 4:15:00 AM 0.9 33.62 0.099 7.2 11.26 13.69
3/10/2021 4:30:00 AM 0.87 33.566 0.098 7.19 11.18 13.7
3/10/2021 4:45:00 AM 0.85 33.53 0.098 7.19 10.95 13.71
3/10/2021 5:00:00 AM 0.82 33.476 0.098 7.19 10.75 13.72
3/10/2021 5:15:00 AM 0.79 33.422 0.099 7.19 10.79 13.73
3/10/2021 5:30:00 AM 0.77 33.386 0.098 7.18 10.43 13.74
3/10/2021 5:45:00 AM 0.74 33.332 0.098 7.18 10.19 13.75
3/10/2021 6:00:00 AM 0.72 33.296 0.098 7.19 9.94 13.76
3/10/2021 6:15:00 AM 0.69 33.242 0.098 7.19 9.95 13.77
3/10/2021 6:30:00 AM 0.67 33.206 0.098 7.19 9.7 13.79
3/10/2021 6:45:00 AM 0.65 33.17 0.097 7.2 10 13.81
3/10/2021 7:00:00 AM 0.64 33.152 0.097 7.2 10.02 13.84
3/10/2021 7:15:00 AM 0.63 33.134 0.098 7.2 9.63 13.88
3/10/2021 7:30:00 AM 0.62 33.116 0.097 7.22 9.5 13.92
3/10/2021 7:45:00 AM 0.62 33.116 0.097 7.22 9.41 13.97
3/10/2021 8:00:00 AM 0.63 33.134 0.097 7.24 9.22 14.01
3/10/2021 8:15:00 AM 0.64 33.152 0.097 7.25 9.07 14.04
3/10/2021 8:30:00 AM 0.67 33.206 0.096 7.26 9 14.07
3/10/2021 8:45:00 AM 0.73 33.314 0.096 7.28 8.78 14.09
3/10/2021 9:00:00 AM 0.84 33.512 0.096 7.29 8.88 14.09
3/10/2021 9:15:00 AM 0.96 33.728 0.096 7.3 8.66 14.08
3/10/2021 9:30:00 AM 1.11 33.998 0.096 7.32 8.57 14.06
3/10/2021 9:45:00 AM 1.29 34.322 0.096 7.34 8.71 14.03
3/10/2021 10:00:00 AM 1.5 34.7 0.096 7.35 8.53 13.98
3/10/2021 10:15:00 AM 1.74 35.132 0.095 7.37 8.73 13.93
3/10/2021 10:30:00 AM 1.98 35.564 0.095 7.38 8.4 13.86
3/10/2021 10:45:00 AM 2.25 36.05 0.095 7.4 8.4 13.78
3/10/2021 11:00:00 AM 2.54 36.572 0.094 7.42 8.32 13.69
3/10/2021 11:15:00 AM 2.83 37.094 0.094 7.43 8.88 13.6
3/10/2021 11:30:00 AM 3.12 37.616 0.094 7.44 8.21 13.5
3/10/2021 11:45:00 AM 3.41 38.138 0.094 7.45 8.1 13.4
3/10/2021 12:00:00 PM 3.68 38.624 0.094 7.47 8.46 13.3
3/10/2021 12:15:00 PM 3.94 39.092 0.094 7.47 8.27 13.21
3/10/2021 12:30:00 PM 4.2 39.56 0.094 7.48 8.32 13.12
3/10/2021 12:45:00 PM 4.44 39.992 0.094 7.48 8.37 13.03
3/10/2021 1:00:00 PM 4.69 40.442 0.094 7.49 8.16 12.94
3/10/2021 1:15:00 PM 4.88 40.784 0.094 7.5 8.35 12.87
3/10/2021 1:30:00 PM 5.05 41.09 0.094 7.49 8.34 12.79
3/10/2021 1:45:00 PM 5.2 41.36 0.095 7.5 8.21 12.72
3/10/2021 2:00:00 PM 5.32 41.576 0.095 7.5 8.57 12.66
3/10/2021 2:15:00 PM 5.41 41.738 0.095 7.49 8.47 12.61
3/10/2021 2:30:00 PM 5.48 41.864 0.095 7.49 8.82 12.57
3/10/2021 2:45:00 PM 5.51 41.918 0.095 7.48 8.8 12.54
3/10/2021 3:00:00 PM 5.54 41.972 0.095 7.48 8.86 12.51
3/10/2021 3:15:00 PM 5.51 41.918 0.095 7.46 9.87 12.48
3/10/2021 3:30:00 PM 5.45 41.81 0.095 7.45 9.3 12.47
3/10/2021 3:45:00 PM 5.36 41.648 0.095 7.43 9.66 12.45
3/10/2021 4:00:00 PM 5.23 41.414 0.095 7.42 11.55 12.45
3/10/2021 4:15:00 PM 5.09 41.162 0.095 7.39 17.66 12.43
3/10/2021 4:30:00 PM 4.94 40.892 0.097 7.36 34.99 12.38
3/10/2021 4:45:00 PM 4.77 40.586 0.098 7.34 34.17 12.37
3/10/2021 5:00:00 PM 4.67 40.406 0.1 7.29 51.11 12.37
3/10/2021 5:15:00 PM 4.49 40.082 0.101 7.27 59.25 12.42
3/10/2021 5:30:00 PM 4.08 39.344 0.105 7.25 60.83 12.56
3/10/2021 5:45:00 PM 3.58 38.444 0.096 7.2 78.43 12.72
3/10/2021 6:00:00 PM 3.18 37.724 0.093 7.13 94.01 12.85
3/10/2021 6:15:00 PM 2.9 37.22 0.097 6.98 101.77 12.94
3/10/2021 6:30:00 PM 2.69 36.842 0.095 6.95 107.3 13.01
3/10/2021 6:45:00 PM 2.52 36.536 0.093 6.93 114.94 13.07
3/10/2021 7:00:00 PM 2.38 36.284 0.092 6.92 109.13 13.11
3/10/2021 7:15:00 PM 2.25 36.05 0.09 6.69 95.57 13.16
3/10/2021 7:30:00 PM 2.13 35.834 0.089 6.89 100.08 13.21
3/10/2021 7:45:00 PM 2.01 35.618 0.082 6.87 91.31 13.26
3/10/2021 8:00:00 PM 1.9 35.42 0.082 6.85 110.62 13.31
3/10/2021 8:15:00 PM 1.81 35.258 0.085 6.66 98.89 13.34
3/10/2021 8:30:00 PM 1.73 35.114 0.085 6.88 75.11 13.38
3/10/2021 8:45:00 PM 1.68 35.024 0.079 6.86 79.74 13.4
3/10/2021 9:00:00 PM 1.63 34.934 0.079 6.86 64.96 13.42
3/10/2021 9:15:00 PM 1.59 34.862 0.084 6.88 65.11 13.42
3/10/2021 9:30:00 PM 1.56 34.808 0.084 6.91 67.18 13.47
3/10/2021 9:45:00 PM 1.54 34.772 0.084 6.91 57.77 13.48
3/10/2021 10:00:00 PM 1.52 34.736 0.078 6.91 49.13 13.5
3/10/2021 10:15:00 PM 1.5 34.7 0.084 6.92 51.03 13.46
3/10/2021 10:30:00 PM 1.49 34.682 0.079 6.93 58.4 13.46
3/10/2021 10:45:00 PM 1.48 34.664 0.079 6.94 64.55 13.46
3/10/2021 11:00:00 PM 1.47 34.646 0.079 6.95 53.95 13.46
3/10/2021 11:15:00 PM 1.46 34.628 0.079 6.96 34.38 13.47
3/10/2021 11:30:00 PM 1.46 34.628 0.079 6.95 38.13 13.47
3/10/2021 11:45:00 PM 1.46 34.628 0.079 6.96 42.07 13.47
3/11/2021 12:00:00 AM 1.46 34.628 0.079 6.97 32.66 13.46
3/11/2021 12:15:00 AM 1.46 34.628 0.079 6.98 40.3 13.46
3/11/2021 12:30:00 AM 1.47 34.646 0.079 6.98 46.09 13.45
3/11/2021 12:45:00 AM 1.49 34.682 0.084 7 30.32 13.45
3/11/2021 1:00:00 AM 1.51 34.718 0.079 7.01 32.79 13.45
3/11/2021 1:15:00 AM 1.52 34.736 0.078 7.11 49.43 13.44
3/11/2021 1:30:00 AM 1.54 34.772 0.08 7.07 28.43 13.43
3/11/2021 1:45:00 AM 1.56 34.808 0.079 6.98 33.29 13.42
3/11/2021 2:00:00 AM 1.57 34.826 0.079 7 29.86 13.41
3/11/2021 2:15:00 AM 1.59 34.862 0.079 7.01 34.45 13.4
3/11/2021 2:30:00 AM 1.61 34.898 0.079 7.01 28.73 13.39
3/11/2021 2:45:00 AM 1.63 34.934 0.079 7.01 25.27 13.39
3/11/2021 3:00:00 AM 1.64 34.952 0.079 7.01 23.86 13.37
3/11/2021 3:15:00 AM 1.66 34.988 0.079 6.96 23.21 13.37
3/11/2021 3:30:00 AM 1.68 35.024 0.078 7.02 22.8 13.36
3/11/2021 3:45:00 AM 1.7 35.06 0.078 7 24.51 13.35
3/11/2021 4:00:00 AM 1.72 35.096 0.078 6.95 22.22 13.34
3/11/2021 4:15:00 AM 1.73 35.114 0.078 6.98 21.7 13.33
3/11/2021 4:30:00 AM 1.75 35.15 0.078 6.97 21.34 13.33
3/11/2021 4:45:00 AM 1.76 35.168 0.078 6.94 22.54 13.32
3/11/2021 5:00:00 AM 1.78 35.204 0.078 6.95 20.43 13.31
3/11/2021 5:15:00 AM 1.79 35.222 0.078 6.97 18.45 13.31
3/11/2021 5:30:00 AM 1.8 35.24 0.078 6.95 19.19 13.3
3/11/2021 5:45:00 AM 1.79 35.222 0.078 7.02 17.82 13.3
3/11/2021 6:00:00 AM 1.79 35.222 0.078 6.97 19.16 13.3
3/11/2021 6:15:00 AM 1.79 35.222 0.078 7.01 18.7 13.29
3/11/2021 6:30:00 AM 1.8 35.24 0.078 7.02 17.19 13.3
3/11/2021 6:45:00 AM 1.8 35.24 0.077 7.02 17.04 13.3
3/11/2021 7:00:00 AM 1.8 35.24 0.077 6.96 16.57 13.31
3/11/2021 7:15:00 AM 1.8 35.24 0.077 6.94 17.02 13.32
3/11/2021 7:30:00 AM 1.8 35.24 0.077 6.97 16.25 13.34
3/11/2021 7:45:00 AM 1.8 35.24 0.077 6.96 16.74 13.35
3/11/2021 8:00:00 AM 1.81 35.258 0.077 6.97 15.82 13.37
3/11/2021 8:15:00 AM 1.83 35.294 0.077 6.98 15.98 13.39
3/11/2021 8:30:00 AM 1.92 35.456 0.077 6.99 15.73 13.39
3/11/2021 8:45:00 AM 1.98 35.564 0.077 7 16.09 13.38
3/11/2021 9:00:00 AM 2.07 35.726 0.076 7.02 15.09 13.38
3/11/2021 9:15:00 AM 2.14 35.852 0.076 7.01 15.33 13.36
3/11/2021 9:30:00 AM 2.2 35.96 0.076 7.02 15.64 13.33
3/11/2021 9:45:00 AM 2.28 36.104 0.076 7.03 15.62 13.32
3/11/2021 10:00:00 AM 2.35 36.23 0.076 7.03 16.11 13.29
3/11/2021 10:15:00 AM 2.44 36.392 0.076 7.06 14.33 13.28
3/11/2021 10:30:00 AM 2.63 36.734 0.075 7.08 15.05 13.25
3/11/2021 10:45:00 AM 2.87 37.166 0.075 7.08 14.33 13.2
3/11/2021 11:00:00 AM 3.1 37.58 0.075 7.11 15 13.13
3/11/2021 11:15:00 AM 3.39 38.102 0.075 7.13 15.04 13.05
3/11/2021 11:30:00 AM 3.66 38.588 0.075 7.14 14.79 12.97
3/11/2021 11:45:00 AM 3.85 38.93 0.075 7.15 15.32 12.89
3/11/2021 12:00:00 PM 3.98 39.164 0.075 7.15 14.66 12.83
3/11/2021 12:15:00 PM 4.13 39.434 0.074 7.15 13.66 12.77
3/11/2021 12:30:00 PM 4.33 39.794 0.074 7.16 16.13 12.71
3/11/2021 12:45:00 PM 4.51 40.118 0.074 7.15 14.86 12.64
3/11/2021 1:00:00 PM 4.7 40.46 0.074 7.15 17.56 12.57
3/11/2021 1:15:00 PM 4.79 40.622 0.074 7.14 17.57 12.5
3/11/2021 1:30:00 PM 4.8 40.64 0.074 7.12 26.12 12.46
3/11/2021 1:45:00 PM 4.88 40.784 0.073 7.08 28.8 12.43
3/11/2021 2:00:00 PM 4.9 40.82 0.074 7.07 47.77 12.39
3/11/2021 2:15:00 PM 4.82 40.676 0.073 7.02 61.45 12.36
3/11/2021 2:30:00 PM 4.77 40.586 0.073 6.98 86.78 12.35
3/11/2021 2:45:00 PM 4.69 40.442 0.072 6.93 181.4 12.35
3/11/2021 3:00:00 PM 4.48 40.064 0.071 6.92 135.11 12.39
3/11/2021 3:15:00 PM 4.28 39.704 0.07 6.87 211.96 12.44
3/11/2021 3:30:00 PM 4.13 39.434 0.056 6.96 182.28 12.48
3/11/2021 3:45:00 PM 4.02 39.236 0.038 6.92 192.87 12.5
3/11/2021 4:00:00 PM 3.92 39.056 0.07 6.9 54.77 12.53
3/11/2021 4:15:00 PM 3.81 38.858 0.067 6.9 93.11 12.56
3/11/2021 4:30:00 PM 3.72 38.696 0.066 6.87 164.81 12.59
3/11/2021 4:45:00 PM 3.62 38.516 0.067 6.79 147.4 12.63
3/11/2021 5:00:00 PM 3.54 38.372 0.066 6.78 203.44 12.65
3/11/2021 5:15:00 PM 3.47 38.246 0.065 6.78 169.65 12.68
3/11/2021 5:30:00 PM 3.42 38.156 0.064 6.83 147.86 12.69
3/11/2021 5:45:00 PM 3.38 38.084 0.064 6.81 165.85 12.71
3/11/2021 6:00:00 PM 3.33 37.994 0.063 6.8 143.84 12.72
3/11/2021 6:15:00 PM 3.28 37.904 0.063 6.79 196.4 12.73
3/11/2021 6:30:00 PM 3.24 37.832 0.062 6.78 134.38 12.74
3/11/2021 6:45:00 PM 3.22 37.796 0.062 6.77 120.36 12.75
3/11/2021 7:00:00 PM 3.22 37.796 0.062 6.77 109.58 12.75
3/11/2021 7:15:00 PM 3.22 37.796 0.062 6.77 118.76 12.75
3/11/2021 7:30:00 PM 3.22 37.796 0.062 6.78 78.99 12.75
3/11/2021 7:45:00 PM 3.23 37.814 0.061 6.76 85.12 12.75
3/11/2021 8:00:00 PM 3.23 37.814 0.061 6.75 89.14 12.75
3/11/2021 8:15:00 PM 3.22 37.796 0.061 6.76 92.75 12.76
3/11/2021 8:30:00 PM 3.21 37.778 0.061 6.77 86.25 12.76
3/11/2021 8:45:00 PM 3.21 37.778 0.061 6.77 72.92 12.76
3/11/2021 9:00:00 PM 3.22 37.796 0.061 6.77 59.37 12.75
3/11/2021 9:15:00 PM 3.22 37.796 0.061 6.78 66.32 12.75
3/11/2021 9:30:00 PM 3.22 37.796 0.06 6.76 48.59 12.75
3/11/2021 9:45:00 PM 3.22 37.796 0.06 6.58 54.42 12.75
3/11/2021 10:00:00 PM 3.21 37.778 0.06 6.77 56.75 12.76
3/11/2021 10:15:00 PM 3.22 37.796 0.06 6.77 55.49 12.75
3/11/2021 10:30:00 PM 3.23 37.814 0.06 6.75 60.17 12.75
3/11/2021 10:45:00 PM 3.24 37.832 0.06 6.76 51.77 12.74
3/11/2021 11:00:00 PM 3.26 37.868 0.06 6.76 66.6 12.74
3/11/2021 11:15:00 PM 3.27 37.886 0.06 6.76 48.68 12.73
3/11/2021 11:30:00 PM 3.27 37.886 0.059 6.76 60.49 12.73
3/11/2021 11:45:00 PM 3.27 37.886 0.059 6.76 51.18 12.73
3/12/2021 12:00:00 AM 3.27 37.886 0.059 6.76 49.78 12.73
3/12/2021 12:15:00 AM 3.27 37.886 0.059 6.76 45.8 12.73
3/12/2021 12:30:00 AM 3.27 37.886 0.059 6.75 54.13 12.73
3/12/2021 12:45:00 AM 3.26 37.868 0.059 6.75 41.01 12.73
3/12/2021 1:00:00 AM 3.26 37.868 0.059 6.74 55.3 12.73
3/12/2021 1:15:00 AM 3.26 37.868 0.058 6.75 44.11 12.73
3/12/2021 1:30:00 AM 3.27 37.886 0.058 6.75 42.21 12.74
3/12/2021 1:45:00 AM 3.26 37.868 0.058 6.75 46.86 12.74
3/12/2021 2:00:00 AM 3.26 37.868 0.058 6.75 49.02 12.74
3/12/2021 2:15:00 AM 3.26 37.868 0.058 6.75 43.57 12.74
3/12/2021 2:30:00 AM 3.27 37.886 0.058 6.74 39.53 12.74
3/12/2021 2:45:00 AM 3.28 37.904 0.057 6.74 41.31 12.74
3/12/2021 3:00:00 AM 3.28 37.904 0.057 6.56 39.84 12.74
3/12/2021 3:15:00 AM 3.28 37.904 0.057 6.74 32.32 12.75
3/12/2021 3:30:00 AM 3.27 37.886 0.057 6.74 42.5 12.75
3/12/2021 3:45:00 AM 3.26 37.868 0.057 6.74 42.78 12.76
3/12/2021 4:00:00 AM 3.25 37.85 0.057 6.73 42.06 12.77
3/12/2021 4:15:00 AM 3.24 37.832 0.057 6.74 35.51 12.77
3/12/2021 4:30:00 AM 3.21 37.778 0.057 6.74 37.57 12.78
3/12/2021 4:45:00 AM 3.18 37.724 0.056 6.75 38.5 12.79
3/12/2021 5:00:00 AM 3.14 37.652 0.056 6.73 37.18 12.8
3/12/2021 5:15:00 AM 3.1 37.58 0.056 6.73 35.1 12.82
3/12/2021 5:30:00 AM 3.06 37.508 0.056 6.73 32.1 12.84
3/12/2021 5:45:00 AM 3.02 37.436 0.056 6.72 26.93 12.85
3/12/2021 6:00:00 AM 2.98 37.364 0.056 6.72 36.8 12.87
3/12/2021 6:15:00 AM 2.94 37.292 0.056 6.72 33.09 12.88
3/12/2021 6:30:00 AM 2.9 37.22 0.056 6.71 29.68 12.9
3/12/2021 6:45:00 AM 2.86 37.148 0.056 6.72 32.6 12.91
3/12/2021 7:00:00 AM 2.83 37.094 0.056 6.73 30.17 12.93
3/12/2021 7:15:00 AM 2.8 37.04 0.056 6.73 27.71 12.94
3/12/2021 7:30:00 AM 2.77 36.986 0.056 6.74 26.63 12.96
3/12/2021 7:45:00 AM 2.75 36.95 0.056 6.72 24.33 12.97
3/12/2021 8:00:00 AM 2.74 36.932 0.056 6.73 22.59 12.98
3/12/2021 8:15:00 AM 2.74 36.932 0.056 6.74 24.72 12.99
3/12/2021 8:30:00 AM 2.76 36.968 0.056 6.74 22.93 13
3/12/2021 8:45:00 AM 2.81 37.058 0.056 6.74 23.15 13
3/12/2021 9:00:00 AM 2.88 37.184 0.056 6.75 22.79 12.99
3/12/2021 9:15:00 AM 2.98 37.364 0.056 6.77 24.41 12.97
3/12/2021 9:30:00 AM 3.1 37.58 0.056 6.76 21.38 12.94
3/12/2021 9:45:00 AM 3.24 37.832 0.056 6.79 21.43 12.91
3/12/2021 10:00:00 AM 3.39 38.102 0.055 6.8 21.91 12.87
3/12/2021 10:15:00 AM 3.54 38.372 0.055 6.8 23.87 12.83
3/12/2021 10:30:00 AM 3.71 38.678 0.055 6.81 19.48 12.78
3/12/2021 10:45:00 AM 3.88 38.984 0.055 6.83 20.16 12.73
3/12/2021 11:00:00 AM 4.05 39.29 0.055 6.87 19.49 12.68
3/12/2021 11:15:00 AM 4.23 39.614 0.055 6.86 19.28 12.62
3/12/2021 11:30:00 AM 4.4 39.92 0.055 6.87 30.25 12.56
3/12/2021 11:45:00 AM 4.58 40.244 0.055 6.87 21.4 12.51
3/12/2021 12:00:00 PM 4.75 40.55 0.055 6.88 21.47 12.45
3/12/2021 12:15:00 PM 4.92 40.856 0.055 6.88 19.44 12.39
3/12/2021 12:30:00 PM 5.08 41.144 0.055 6.87 21.95 12.34
3/12/2021 12:45:00 PM 5.23 41.414 0.055 6.87 27.02 12.28
3/12/2021 1:00:00 PM 5.37 41.666 0.055 6.87 19.52 12.24
3/12/2021 1:15:00 PM 5.49 41.882 0.055 6.87 16.19 12.19
3/12/2021 1:30:00 PM 5.6 42.08 0.055 6.86 19.17 12.15
3/12/2021 1:45:00 PM 5.69 42.242 0.055 6.84 19.19 12.11
3/12/2021 2:00:00 PM 5.75 42.35 0.055 6.85 20.5 12.08
3/12/2021 2:15:00 PM 5.8 42.44 0.055 6.85 22.67 12.05
3/12/2021 2:30:00 PM 5.83 42.494 0.054 6.84 23.63 12.04
3/12/2021 2:45:00 PM 5.84 42.512 0.054 6.86 19.37 12.02
3/12/2021 3:00:00 PM 5.83 42.494 0.054 6.84 19.66 12.01
3/12/2021 3:15:00 PM 5.8 42.44 0.054 6.82 23.55 12
3/12/2021 3:30:00 PM 5.74 42.332 0.054 6.82 22.25 12.01
3/12/2021 3:45:00 PM 5.68 42.224 0.054 6.64 30.18 12
3/12/2021 4:00:00 PM 5.6 42.08 0.054 6.81 28.22 12.02
3/12/2021 4:15:00 PM 5.5 41.9 0.054 6.79 28.96 12.03
3/12/2021 4:30:00 PM 5.4 41.72 0.054 6.78 27.94 12.05
3/12/2021 4:45:00 PM 5.3 41.54 0.054 6.77 25.47 12.07
3/12/2021 5:00:00 PM 5.21 41.378 0.054 6.77 26.61 12.09
3/12/2021 5:15:00 PM 5.08 41.144 0.054 6.75 27.7 12.12
3/12/2021 5:30:00 PM 4.96 40.928 0.054 6.76 25.16 12.16
3/12/2021 5:45:00 PM 4.86 40.748 0.054 6.74 26.29 12.19
3/12/2021 6:00:00 PM 4.75 40.55 0.054 6.74 26.41 12.22
3/12/2021 6:15:00 PM 4.64 40.352 0.054 6.74 25.59 12.26
3/12/2021 6:30:00 PM 4.54 40.172 0.054 6.74 24.02 12.29
3/12/2021 6:45:00 PM 4.45 40.01 0.054 6.72 23.69 12.32
3/12/2021 7:00:00 PM 4.36 39.848 0.054 6.72 19.95 12.35
3/12/2021 7:15:00 PM 4.28 39.704 0.054 6.71 26.44 12.38
3/12/2021 7:30:00 PM 4.21 39.578 0.054 6.71 24.56 12.41
3/12/2021 7:45:00 PM 4.14 39.452 0.054 6.69 22.99 12.44
3/12/2021 8:00:00 PM 4.07 39.326 0.054 6.7 21.99 12.46
3/12/2021 8:15:00 PM 4.01 39.218 0.054 6.68 18.77 12.48
3/12/2021 8:30:00 PM 3.96 39.128 0.053 6.69 19.69 12.51
3/12/2021 8:45:00 PM 3.91 39.038 0.053 6.69 21.11 12.52
3/12/2021 9:00:00 PM 3.87 38.966 0.053 6.7 18.8 12.54
3/12/2021 9:15:00 PM 3.83 38.894 0.053 6.7 17.67 12.56
3/12/2021 9:30:00 PM 3.79 38.822 0.053 6.69 22.41 12.57
3/12/2021 9:45:00 PM 3.75 38.75 0.053 6.7 18.56 12.58
3/12/2021 10:00:00 PM 3.71 38.678 0.053 6.72 19.27 12.6
3/12/2021 10:15:00 PM 3.66 38.588 0.053 6.72 18.7 12.62
3/12/2021 10:30:00 PM 3.6 38.48 0.053 6.71 20.93 12.64
3/12/2021 10:45:00 PM 3.55 38.39 0.053 6.71 16.29 12.66
3/12/2021 11:00:00 PM 3.5 38.3 0.053 6.71 18.04 12.68
3/12/2021 11:15:00 PM 3.44 38.192 0.053 6.71 18.53 12.7
3/12/2021 11:30:00 PM 3.39 38.102 0.053 6.72 17.62 12.73
3/12/2021 11:45:00 PM 3.33 37.994 0.053 6.72 17.35 12.75
3/13/2021 12:00:00 AM 3.28 37.904 0.053 6.71 17.3 12.77
3/13/2021 12:15:00 AM 3.22 37.796 0.053 6.72 17.41 12.79
3/13/2021 12:30:00 AM 3.16 37.688 0.053 6.72 16.85 12.81
3/13/2021 12:45:00 AM 3.1 37.58 0.053 6.7 16.23 12.84
3/13/2021 1:00:00 AM 3.05 37.49 0.053 6.73 16.44 12.86
3/13/2021 1:15:00 AM 3 37.4 0.053 6.72 16.32 12.88
3/13/2021 1:30:00 AM 2.95 37.31 0.053 6.73 16.25 12.9
3/13/2021 1:45:00 AM 2.9 37.22 0.053 6.73 16.13 12.92
3/13/2021 2:00:00 AM 2.85 37.13 0.053 6.74 15.33 12.94
3/13/2021 2:15:00 AM 2.8 37.04 0.053 6.73 15.6 12.96
3/13/2021 2:30:00 AM 2.76 36.968 0.053 6.73 15.49 12.98
3/13/2021 2:45:00 AM 2.71 36.878 0.053 6.73 15.48 13
3/13/2021 3:00:00 AM 2.66 36.788 0.053 6.74 14.4 13.02
3/13/2021 3:15:00 AM 2.61 36.698 0.053 6.74 14.67 13.03
3/13/2021 3:30:00 AM 2.58 36.644 0.053 6.74 14.57 13.05
3/13/2021 3:45:00 AM 2.53 36.554 0.053 6.74 14.39 13.07
3/13/2021 4:00:00 AM 2.48 36.464 0.053 6.75 14.42 13.08
3/13/2021 4:15:00 AM 2.44 36.392 0.053 6.74 14.07 13.1
3/13/2021 4:30:00 AM 2.4 36.32 0.053 6.74 14.19 13.12
3/13/2021 4:45:00 AM 2.36 36.248 0.053 6.74 13.79 13.13
3/13/2021 5:00:00 AM 2.33 36.194 0.053 6.76 13.36 13.15
3/13/2021 5:15:00 AM 2.29 36.122 0.053 6.74 12.98 13.16
3/13/2021 5:30:00 AM 2.26 36.068 0.053 6.74 13.31 13.17
3/13/2021 5:45:00 AM 2.23 36.014 0.053 6.75 13.1 13.19
3/13/2021 6:00:00 AM 2.19 35.942 0.053 6.75 12.89 13.2
3/13/2021 6:15:00 AM 2.16 35.888 0.053 6.75 12.72 13.22
3/13/2021 6:30:00 AM 2.13 35.834 0.053 6.76 12.63 13.23
3/13/2021 6:45:00 AM 2.11 35.798 0.053 6.75 12.68 13.25
3/13/2021 7:00:00 AM 2.08 35.744 0.053 6.77 12.16 13.27
3/13/2021 7:15:00 AM 2.06 35.708 0.053 6.78 12.24 13.28
3/13/2021 7:30:00 AM 2.05 35.69 0.053 6.77 11.83 13.3
3/13/2021 7:45:00 AM 2.03 35.654 0.053 6.79 11.91 13.31
3/13/2021 8:00:00 AM 2.01 35.618 0.053 6.81 11.36 13.33
3/13/2021 8:15:00 AM 2.02 35.636 0.053 6.81 11.1 13.34
3/13/2021 8:30:00 AM 2.04 35.672 0.053 6.8 11.02 13.35
3/13/2021 8:45:00 AM 2.09 35.762 0.053 6.82 11.01 13.35
3/13/2021 9:00:00 AM 2.16 35.888 0.053 6.84 10.88 13.34
3/13/2021 9:15:00 AM 2.23 36.014 0.053 6.83 10.78 13.32
3/13/2021 9:30:00 AM 2.33 36.194 0.053 6.84 10.78 13.3
3/13/2021 9:45:00 AM 2.45 36.41 0.053 6.84 10.47 13.27
3/13/2021 10:00:00 AM 2.58 36.644 0.053 6.87 10.54 13.24
3/13/2021 10:15:00 AM 2.72 36.896 0.053 6.86 10.28 13.2
3/13/2021 10:30:00 AM 2.88 37.184 0.053 6.88 10.19 13.15
3/13/2021 10:45:00 AM 3.04 37.472 0.053 6.9 10.24 13.1
3/13/2021 11:00:00 AM 3.21 37.778 0.053 6.9 10.53 13.05
3/13/2021 11:15:00 AM 3.38 38.084 0.053 6.9 10.33 12.99
3/13/2021 11:30:00 AM 3.55 38.39 0.053 6.9 10.06 12.93
3/13/2021 11:45:00 AM 3.73 38.714 0.053 6.92 9.91 12.87
3/13/2021 12:00:00 PM 3.9 39.02 0.053 6.91 9.75 12.81
3/13/2021 12:15:00 PM 4.07 39.326 0.053 6.92 10.08 12.76
3/13/2021 12:30:00 PM 4.23 39.614 0.053 6.94 9.66 12.69
3/13/2021 12:45:00 PM 4.38 39.884 0.053 6.94 9.46 12.64
3/13/2021 1:00:00 PM 4.53 40.154 0.053 6.93 9.99 12.58
3/13/2021 1:15:00 PM 4.67 40.406 0.053 6.93 9.7 12.52
3/13/2021 1:30:00 PM 4.79 40.622 0.053 6.95 9.91 12.47
3/13/2021 1:45:00 PM 4.89 40.802 0.053 6.93 9.65 12.43
3/13/2021 2:00:00 PM 4.97 40.946 0.053 6.94 10.09 12.39
3/13/2021 2:15:00 PM 5.03 41.054 0.053 6.95 9.58 12.36
3/13/2021 2:30:00 PM 5.08 41.144 0.053 6.95 9.4 12.33
3/13/2021 2:45:00 PM 5.1 41.18 0.053 6.93 9.55 12.31
3/13/2021 3:00:00 PM 5.11 41.198 0.053 6.93 9.61 12.3
3/13/2021 3:15:00 PM 5.09 41.162 0.053 6.91 9.96 12.29
3/13/2021 3:30:00 PM 5.05 41.09 0.053 6.9 9.81 12.29
3/13/2021 3:45:00 PM 5 41 0.053 6.92 9.94 12.29
3/13/2021 4:00:00 PM 4.92 40.856 0.053 6.92 10.53 12.3
3/13/2021 4:15:00 PM 4.84 40.712 0.053 6.9 10.4 12.3
3/13/2021 4:30:00 PM 4.76 40.568 0.053 6.91 10.19 12.31
3/13/2021 4:45:00 PM 4.68 40.424 0.054 6.9 10.28 12.32
3/13/2021 5:00:00 PM 4.61 40.298 0.054 6.9 10.39 12.34
3/13/2021 5:15:00 PM 4.54 40.172 0.054 6.89 10 12.36
3/13/2021 5:30:00 PM 4.45 40.01 0.054 6.88 10.36 12.38
3/13/2021 5:45:00 PM 4.35 39.83 0.054 6.88 10.9 12.41
3/13/2021 6:00:00 PM 4.26 39.668 0.054 6.88 10.5 12.43
3/13/2021 6:15:00 PM 4.18 39.524 0.054 6.86 10.46 12.45
3/13/2021 6:30:00 PM 4.09 39.362 0.054 6.84 10.94 12.47
3/13/2021 6:45:00 PM 4.01 39.218 0.054 6.85 11.08 12.49
3/13/2021 7:00:00 PM 3.92 39.056 0.054 6.84 11.83 12.51
3/13/2021 7:15:00 PM 3.83 38.894 0.054 6.84 11.36 12.53
3/13/2021 7:30:00 PM 3.75 38.75 0.054 6.82 10.63 12.56
3/13/2021 7:45:00 PM 3.68 38.624 0.054 6.8 10.41 12.59
3/13/2021 8:00:00 PM 3.6 38.48 0.054 6.82 10.91 12.61
3/13/2021 8:15:00 PM 3.54 38.372 0.054 6.8 10.19 12.63
3/13/2021 8:30:00 PM 3.47 38.246 0.054 6.79 10.09 12.65
3/13/2021 8:45:00 PM 3.41 38.138 0.054 6.78 9.71 12.67
3/13/2021 9:00:00 PM 3.35 38.03 0.054 6.8 10.16 12.7
3/13/2021 9:15:00 PM 3.29 37.922 0.054 6.79 10.42 12.71
3/13/2021 9:30:00 PM 3.24 37.832 0.054 6.79 10.13 12.73
3/13/2021 9:45:00 PM 3.18 37.724 0.054 6.79 10.06 12.75
3/13/2021 10:00:00 PM 3.14 37.652 0.054 6.8 10.1 12.77
3/13/2021 10:15:00 PM 3.09 37.562 0.054 6.8 9.97 12.79
3/13/2021 10:30:00 PM 3.05 37.49 0.054 6.8 10.03 12.8
3/13/2021 10:45:00 PM 3.01 37.418 0.054 6.8 9.77 12.81
3/13/2021 11:00:00 PM 2.97 37.346 0.055 6.82 9.83 12.83
3/13/2021 11:15:00 PM 2.94 37.292 0.055 6.81 9.61 12.84
3/13/2021 11:30:00 PM 2.9 37.22 0.055 6.82 9.3 12.85
3/13/2021 11:45:00 PM 2.87 37.166 0.055 6.82 9.56 12.86
3/14/2021 12:00:00 AM 2.84 37.112 0.055 6.82 9.55 12.87
3/14/2021 12:15:00 AM 2.81 37.058 0.055 6.83 9.36 12.88
3/14/2021 12:30:00 AM 2.79 37.022 0.055 6.82 9.4 12.89
3/14/2021 12:45:00 AM 2.76 36.968 0.055 6.83 9.65 12.89
3/14/2021 1:00:00 AM 2.74 36.932 0.055 6.82 9.3 12.9
3/14/2021 1:15:00 AM 2.72 36.896 0.055 6.83 9.27 12.91
3/14/2021 1:30:00 AM 2.7 36.86 0.055 6.83 9.21 12.91
3/14/2021 1:45:00 AM 2.68 36.824 0.055 6.84 9.09 12.92
3/14/2021 3:00:00 AM 2.61 36.698 0.055 6.86 8.86 12.93
3/14/2021 3:15:00 AM 2.59 36.662 0.055 6.85 8.61 12.93
3/14/2021 3:30:00 AM 2.58 36.644 0.055 6.85 8.78 12.93
3/14/2021 3:45:00 AM 2.57 36.626 0.055 6.87 8.7 12.93
3/14/2021 4:00:00 AM 2.55 36.59 0.055 6.86 8.9 12.94
3/14/2021 4:15:00 AM 2.54 36.572 0.055 6.85 8.64 12.94
3/14/2021 4:30:00 AM 2.52 36.536 0.055 6.85 8.68 12.94
3/14/2021 4:45:00 AM 2.51 36.518 0.055 6.86 8.74 12.95
3/14/2021 5:00:00 AM 2.5 36.5 0.055 6.86 8.68 12.96
3/14/2021 5:15:00 AM 2.49 36.482 0.055 6.86 8.2 12.96
3/14/2021 5:30:00 AM 2.47 36.446 0.055 6.86 8.53 12.96
3/14/2021 5:45:00 AM 2.45 36.41 0.055 6.85 8.34 12.97
3/14/2021 6:00:00 AM 2.44 36.392 0.055 6.86 8.35 12.98
3/14/2021 6:15:00 AM 2.42 36.356 0.055 6.85 8.46 12.98
3/14/2021 6:30:00 AM 2.4 36.32 0.055 6.85 8.45 13
3/14/2021 6:45:00 AM 2.38 36.284 0.055 6.86 8.32 13.01
3/14/2021 7:00:00 AM 2.37 36.266 0.055 6.86 8.27 13.02
3/14/2021 7:15:00 AM 2.36 36.248 0.055 6.87 8.6 13.04
3/14/2021 7:30:00 AM 2.35 36.23 0.055 6.68 8.19 13.05
3/14/2021 7:45:00 AM 2.35 36.23 0.055 6.9 8.13 13.06
3/14/2021 8:00:00 AM 2.35 36.23 0.055 6.89 7.99 13.08
3/14/2021 8:15:00 AM 2.37 36.266 0.055 6.9 7.77 13.08
3/14/2021 8:30:00 AM 2.42 36.356 0.055 6.9 7.76 13.09
3/14/2021 8:45:00 AM 2.5 36.5 0.055 6.91 7.96 13.08
3/14/2021 9:00:00 AM 2.61 36.698 0.055 6.92 7.63 13.06
3/14/2021 9:15:00 AM 2.73 36.914 0.055 6.94 7.77 13.04
3/14/2021 9:30:00 AM 2.87 37.166 0.055 6.96 7.89 13.01
3/14/2021 9:45:00 AM 3.04 37.472 0.055 6.95 7.73 12.96
3/14/2021 10:00:00 AM 3.22 37.796 0.055 6.98 7.74 12.91
3/14/2021 10:15:00 AM 3.4 38.12 0.055 6.99 7.36 12.85
3/14/2021 10:30:00 AM 3.6 38.48 0.055 7.01 7.55 12.8
3/14/2021 10:45:00 AM 3.75 38.75 0.055 7 7.75 12.74
3/14/2021 11:00:00 AM 3.9 39.02 0.055 7.02 7.56 12.7
3/14/2021 11:15:00 AM 4.09 39.362 0.055 7.02 7.51 12.64
3/14/2021 11:30:00 AM 4.14 39.452 0.055 7.03 7.43 12.6
3/14/2021 11:45:00 AM 4.16 39.488 0.055 7.02 7.31 12.59
3/14/2021 12:00:00 PM 4.21 39.578 0.055 7.02 7.36 12.57
3/14/2021 12:15:00 PM 4.3 39.74 0.055 7.02 7.49 12.54
3/14/2021 12:30:00 PM 4.51 40.118 0.055 7.04 7.56 12.5
3/14/2021 12:45:00 PM 4.65 40.37 0.055 7.02 7.82 12.46
3/14/2021 1:00:00 PM 4.79 40.622 0.055 7.02 7.77 12.41
3/14/2021 1:15:00 PM 4.91 40.838 0.055 7.02 7.54 12.37
3/14/2021 1:30:00 PM 4.88 40.784 0.055 7.03 7.32 12.35
3/14/2021 1:45:00 PM 4.98 40.964 0.055 7.02 7.38 12.33
3/14/2021 2:00:00 PM 5.07 41.126 0.055 7.02 7.62 12.3
3/14/2021 2:15:00 PM 5.17 41.306 0.055 7.02 7.7 12.27
3/14/2021 2:30:00 PM 5.19 41.342 0.055 7.03 7.57 12.24
3/14/2021 2:45:00 PM 5.28 41.504 0.055 7.01 7.92 12.22
3/14/2021 3:00:00 PM 5.34 41.612 0.055 7.02 7.85 12.19
3/14/2021 3:15:00 PM 5.35 41.63 0.055 7.01 7.65 12.18
3/14/2021 3:30:00 PM 5.32 41.576 0.055 7.01 7.81 12.17
3/14/2021 3:45:00 PM 5.26 41.468 0.055 7 7.61 12.18
3/14/2021 4:00:00 PM 5.2 41.36 0.055 7 8.65 12.19
3/14/2021 4:15:00 PM 5.1 41.18 0.056 6.99 9.13 12.2
3/14/2021 4:30:00 PM 4.95 40.91 0.056 6.99 8.89 12.22
3/14/2021 4:45:00 PM 4.81 40.658 0.056 6.97 8.14 12.24
3/14/2021 5:00:00 PM 4.67 40.406 0.056 6.96 8.89 12.28
3/14/2021 5:15:00 PM 4.53 40.154 0.056 6.96 8.39 12.32
3/14/2021 5:30:00 PM 4.4 39.92 0.056 6.96 8.21 12.36
3/14/2021 5:45:00 PM 4.25 39.65 0.056 6.94 7.91 12.41
3/14/2021 6:00:00 PM 4.1 39.38 0.056 6.93 7.95 12.45
3/14/2021 6:15:00 PM 3.96 39.128 0.056 6.93 7.88 12.5
3/14/2021 6:30:00 PM 3.83 38.894 0.056 6.92 7.91 12.53
3/14/2021 6:45:00 PM 3.72 38.696 0.056 6.91 7.94 12.57
3/14/2021 7:00:00 PM 3.62 38.516 0.056 6.88 7.89 12.6
3/14/2021 7:15:00 PM 3.51 38.318 0.056 6.87 7.88 12.64
3/14/2021 7:30:00 PM 3.41 38.138 0.056 6.84 7.91 12.68
3/14/2021 7:45:00 PM 3.31 37.958 0.056 6.84 7.72 12.72
3/14/2021 8:00:00 PM 3.22 37.796 0.056 6.84 7.95 12.75
3/14/2021 8:15:00 PM 3.13 37.634 0.056 6.84 7.53 12.79
3/14/2021 8:30:00 PM 3.05 37.49 0.056 6.83 7.7 12.82
3/14/2021 8:45:00 PM 2.96 37.328 0.057 6.83 7.74 12.86
3/14/2021 9:00:00 PM 2.86 37.148 0.057 6.83 7.68 12.89
3/14/2021 9:15:00 PM 2.78 37.004 0.057 6.82 7.68 12.93
3/14/2021 9:30:00 PM 2.7 36.86 0.057 6.83 7.61 12.96
3/14/2021 9:45:00 PM 2.62 36.716 0.057 6.83 7.63 12.99
3/14/2021 10:00:00 PM 2.56 36.608 0.057 6.83 7.4 13.02
3/14/2021 10:15:00 PM 2.49 36.482 0.057 6.84 7.6 13.05
3/14/2021 10:30:00 PM 2.42 36.356 0.057 6.84 7.66 13.07
3/14/2021 10:45:00 PM 2.35 36.23 0.057 6.84 7.53 13.1
3/14/2021 11:00:00 PM 2.27 36.086 0.057 6.85 7.6 13.13
3/14/2021 11:15:00 PM 2.21 35.978 0.057 6.84 7.3 13.16
3/14/2021 11:30:00 PM 2.16 35.888 0.057 6.86 7.6 13.18
3/14/2021 11:45:00 PM 2.12 35.816 0.057 6.86 7.57 13.2
3/15/2021 12:00:00 AM 2.08 35.744 0.057 6.87 7.36 13.22
3/15/2021 12:15:00 AM 2.02 35.636 0.057 6.87 7.28 13.24
3/15/2021 12:30:00 AM 1.97 35.546 0.057 6.88 7.29 13.26
3/15/2021 12:45:00 AM 1.92 35.456 0.057 6.88 7.32 13.28
3/15/2021 1:00:00 AM 1.87 35.366 0.057 6.89 7.25 13.3
3/15/2021 1:15:00 AM 1.83 35.294 0.057 6.89 7.33 13.32
3/15/2021 1:30:00 AM 1.78 35.204 0.057 6.9 7.27 13.34
3/15/2021 1:45:00 AM 1.74 35.132 0.057 6.89 7.29 13.36
3/15/2021 2:00:00 AM 1.69 35.042 0.057 6.89 6.92 13.38
3/15/2021 2:15:00 AM 1.65 34.97 0.057 6.89 7.05 13.39
3/15/2021 2:30:00 AM 1.61 34.898 0.057 6.89 7.07 13.41
3/15/2021 2:45:00 AM 1.57 34.826 0.058 6.9 6.98 13.42
3/15/2021 3:00:00 AM 1.53 34.754 0.058 6.89 6.95 13.43
3/15/2021 3:15:00 AM 1.5 34.7 0.058 6.89 7.18 13.45
3/15/2021 3:30:00 AM 1.46 34.628 0.058 6.91 6.97 13.46
3/15/2021 3:45:00 AM 1.43 34.574 0.058 6.91 7.08 13.48
3/15/2021 4:00:00 AM 1.39 34.502 0.058 6.9 7.14 13.49
3/15/2021 4:15:00 AM 1.36 34.448 0.058 6.9 6.96 13.5
3/15/2021 4:30:00 AM 1.33 34.394 0.058 6.9 6.9 13.52
3/15/2021 4:45:00 AM 1.3 34.34 0.058 6.91 7.16 13.53
3/15/2021 5:00:00 AM 1.27 34.286 0.058 6.91 6.9 13.54
3/15/2021 5:15:00 AM 1.24 34.232 0.058 6.92 6.95 13.55
3/15/2021 5:30:00 AM 1.21 34.178 0.058 6.92 6.78 13.57
3/15/2021 5:45:00 AM 1.17 34.106 0.058 6.91 7.6 13.59
3/15/2021 6:00:00 AM 1.13 34.034 0.058 6.92 6.84 13.6
3/15/2021 6:15:00 AM 1.1 33.98 0.058 6.92 6.99 13.62
3/15/2021 6:30:00 AM 1.07 33.926 0.058 6.92 6.87 13.64
3/15/2021 6:45:00 AM 1.05 33.89 0.058 6.92 6.76 13.65
3/15/2021 7:00:00 AM 1.04 33.872 0.058 6.93 6.68 13.68
3/15/2021 7:15:00 AM 1.02 33.836 0.058 6.93 6.98 13.7
3/15/2021 7:30:00 AM 0.99 33.782 0.058 6.93 6.63 13.72
3/15/2021 7:45:00 AM 0.96 33.728 0.058 6.95 6.76 13.75
3/15/2021 8:00:00 AM 0.93 33.674 0.058 6.95 6.65 13.77
3/15/2021 8:15:00 AM 0.92 33.656 0.058 6.96 6.76 13.79
3/15/2021 8:30:00 AM 0.94 33.692 0.058 6.96 6.65 13.8
3/15/2021 8:45:00 AM 1 33.8 0.058 6.96 6.55 13.8
3/15/2021 9:00:00 AM 1.07 33.926 0.058 6.97 6.32 13.8
3/15/2021 9:15:00 AM 1.17 34.106 0.057 6.98 6.44 13.78
3/15/2021 9:30:00 AM 1.29 34.322 0.057 6.99 6.29 13.75
3/15/2021 9:45:00 AM 1.43 34.574 0.057 6.98 6.4 13.72
3/15/2021 10:00:00 AM 1.6 34.88 0.057 6.99 6.34 13.67
3/15/2021 10:15:00 AM 1.77 35.186 0.057 7.01 6.41 13.62
3/15/2021 10:30:00 AM 1.96 35.528 0.057 7.01 6.34 13.56
3/15/2021 10:45:00 AM 2.17 35.906 0.057 7.04 6.25 13.48
3/15/2021 11:00:00 AM 2.37 36.266 0.057 7.05 6.15 13.41
3/15/2021 11:15:00 AM 2.58 36.644 0.057 7.06 6.32 13.35
3/15/2021 11:30:00 AM 2.78 37.004 0.057 7.07 6.14 13.28
3/15/2021 11:45:00 AM 2.97 37.346 0.057 7.08 6.17 13.21
3/15/2021 12:00:00 PM 3.17 37.706 0.057 7.08 6.02 13.13
3/15/2021 12:15:00 PM 3.37 38.066 0.057 7.08 6 13.07
3/15/2021 12:30:00 PM 3.54 38.372 0.057 7.1 6.22 13
3/15/2021 12:45:00 PM 3.71 38.678 0.057 7.1 5.95 12.94
3/15/2021 1:00:00 PM 3.85 38.93 0.057 7.09 6.07 12.88
3/15/2021 1:15:00 PM 3.98 39.164 0.058 7.11 5.92 12.83
3/15/2021 1:30:00 PM 4.1 39.38 0.058 7.11 5.95 12.78
3/15/2021 1:45:00 PM 4.2 39.56 0.058 7.1 6.03 12.74
3/15/2021 2:00:00 PM 4.28 39.704 0.058 7.1 6.01 12.7
3/15/2021 2:15:00 PM 4.34 39.812 0.058 7.11 5.93 12.67
3/15/2021 2:30:00 PM 4.35 39.83 0.058 7.11 6 12.65
3/15/2021 2:45:00 PM 4.36 39.848 0.058 7.1 5.91 12.65
3/15/2021 3:00:00 PM 4.38 39.884 0.058 7.11 6.03 12.63
3/15/2021 3:15:00 PM 4.35 39.83 0.058 7.1 6.14 12.62
3/15/2021 3:30:00 PM 4.29 39.722 0.058 7.09 6.02 12.62
3/15/2021 3:45:00 PM 4.24 39.632 0.058 7.09 6.3 12.62
3/15/2021 4:00:00 PM 4.16 39.488 0.058 7.08 6.61 12.63
3/15/2021 4:15:00 PM 4.08 39.344 0.058 7.08 6.35 12.64
3/15/2021 4:30:00 PM 3.95 39.11 0.058 7.06 6.35 12.65
3/15/2021 4:45:00 PM 3.86 38.948 0.059 7.06 6.22 12.66
3/15/2021 5:00:00 PM 3.78 38.804 0.059 7.06 6.33 12.68
3/15/2021 5:15:00 PM 3.71 38.678 0.059 7.05 6.26 12.7
3/15/2021 5:30:00 PM 3.64 38.552 0.059 7.04 6.26 12.71
3/15/2021 5:45:00 PM 3.56 38.408 0.059 7.03 6.25 12.73
3/15/2021 6:00:00 PM 3.46 38.228 0.059 7.01 6.29 12.75
3/15/2021 6:15:00 PM 3.36 38.048 0.059 7.01 6.37 12.77
3/15/2021 6:30:00 PM 3.27 37.886 0.059 7 6.42 12.79
3/15/2021 6:45:00 PM 3.19 37.742 0.059 6.99 6.48 12.81
3/15/2021 7:00:00 PM 3.11 37.598 0.059 6.98 6.32 12.83
3/15/2021 7:15:00 PM 3.04 37.472 0.059 6.97 6.28 12.86
3/15/2021 7:30:00 PM 2.97 37.346 0.059 6.95 6.5 12.88
3/15/2021 7:45:00 PM 2.9 37.22 0.059 6.96 6.43 12.89
3/15/2021 8:00:00 PM 2.84 37.112 0.059 6.95 6.36 12.92
3/15/2021 8:15:00 PM 2.77 36.986 0.059 6.94 6.45 12.94
3/15/2021 8:30:00 PM 2.7 36.86 0.059 6.93 6.4 12.96
3/15/2021 8:45:00 PM 2.64 36.752 0.059 6.92 6.4 12.99
3/15/2021 9:00:00 PM 2.58 36.644 0.059 6.92 6.65 13.01
3/15/2021 9:15:00 PM 2.53 36.554 0.059 6.92 6.34 13.03
3/15/2021 9:30:00 PM 2.48 36.464 0.059 6.92 6.39 13.05
3/15/2021 9:45:00 PM 2.44 36.392 0.059 6.92 6.37 13.07
3/15/2021 10:00:00 PM 2.4 36.32 0.059 6.91 6.3 13.08
3/15/2021 10:15:00 PM 2.37 36.266 0.059 6.92 6.12 13.09
3/15/2021 10:30:00 PM 2.35 36.23 0.059 6.91 6.35 13.1
3/15/2021 10:45:00 PM 2.32 36.176 0.059 6.92 6.36 13.11
3/15/2021 11:00:00 PM 2.3 36.14 0.059 6.92 6.01 13.12
3/15/2021 11:15:00 PM 2.28 36.104 0.059 6.93 6.35 13.12
3/15/2021 11:30:00 PM 2.27 36.086 0.059 6.93 6.25 13.13
3/15/2021 11:45:00 PM 2.25 36.05 0.059 6.93 6.28 13.13
3/16/2021 12:00:00 AM 2.23 36.014 0.059 6.93 6.15 13.14
3/16/2021 12:15:00 AM 2.22 35.996 0.059 6.94 6.03 13.14
3/16/2021 12:30:00 AM 2.2 35.96 0.059 6.94 6.3 13.14
3/16/2021 12:45:00 AM 2.18 35.924 0.06 6.94 6.29 13.15
3/16/2021 1:00:00 AM 2.16 35.888 0.06 6.94 6.17 13.16
3/16/2021 1:15:00 AM 2.15 35.87 0.06 6.95 6.41 13.16
3/16/2021 1:30:00 AM 2.14 35.852 0.06 6.95 6.02 13.16
3/16/2021 1:45:00 AM 2.13 35.834 0.06 6.96 5.89 13.17
3/16/2021 2:00:00 AM 2.11 35.798 0.06 6.96 6.12 13.17
3/16/2021 2:15:00 AM 2.1 35.78 0.06 6.96 6.21 13.17
3/16/2021 2:30:00 AM 2.09 35.762 0.06 6.96 6.13 13.17
3/16/2021 2:45:00 AM 2.08 35.744 0.06 6.96 6.23 13.18
3/16/2021 3:00:00 AM 2.07 35.726 0.06 6.96 6.37 13.17
3/16/2021 3:15:00 AM 2.06 35.708 0.06 6.96 6.21 13.18
3/16/2021 3:30:00 AM 2.05 35.69 0.06 6.96 6.09 13.18
3/16/2021 3:45:00 AM 2.04 35.672 0.06 6.97 6.07 13.18
3/16/2021 4:00:00 AM 2.03 35.654 0.06 6.97 6.03 13.18
3/16/2021 4:15:00 AM 2.01 35.618 0.06 6.96 5.96 13.18
3/16/2021 4:30:00 AM 2 35.6 0.06 6.97 6.01 13.18
3/16/2021 4:45:00 AM 2 35.6 0.06 6.97 6.03 13.18
3/16/2021 5:00:00 AM 2 35.6 0.06 6.97 6.08 13.19
3/16/2021 5:15:00 AM 1.99 35.582 0.06 6.96 6.21 13.19
3/16/2021 5:30:00 AM 1.99 35.582 0.06 6.96 6.04 13.19
3/16/2021 5:45:00 AM 1.99 35.582 0.06 6.97 5.94 13.19
3/16/2021 6:00:00 AM 1.99 35.582 0.06 6.97 5.84 13.19
3/16/2021 6:15:00 AM 1.99 35.582 0.06 6.97 5.99 13.19
3/16/2021 6:30:00 AM 2 35.6 0.06 6.96 5.88 13.19
3/16/2021 6:45:00 AM 2 35.6 0.06 6.96 5.78 13.19
3/16/2021 7:00:00 AM 2 35.6 0.06 6.97 5.8 13.2
3/16/2021 7:15:00 AM 2 35.6 0.06 6.97 5.84 13.2
3/16/2021 7:30:00 AM 1.98 35.564 0.06 6.97 5.76 13.21
3/16/2021 7:45:00 AM 1.97 35.546 0.06 6.98 5.8 13.22
3/16/2021 8:00:00 AM 1.96 35.528 0.06 6.98 5.76 13.24
3/16/2021 8:15:00 AM 1.95 35.51 0.06 6.98 5.69 13.27
3/16/2021 8:30:00 AM 1.92 35.456 0.06 6.99 5.56 13.28
3/16/2021 8:45:00 AM 1.89 35.402 0.06 7 5.67 13.29
3/16/2021 9:00:00 AM 1.87 35.366 0.06 7.01 5.59 13.3
3/16/2021 9:15:00 AM 1.87 35.366 0.06 7.01 5.75 13.32
3/16/2021 9:30:00 AM 1.88 35.384 0.06 7.01 5.63 13.33
3/16/2021 9:45:00 AM 1.9 35.42 0.06 7.03 5.62 13.33
3/16/2021 10:00:00 AM 1.93 35.474 0.06 7.02 5.63 13.33
3/16/2021 10:15:00 AM 1.97 35.546 0.06 7.03 5.55 13.34
3/16/2021 10:30:00 AM 2 35.6 0.06 7.04 5.48 13.33
3/16/2021 10:45:00 AM 2.03 35.654 0.06 7.04 5.55 13.32
3/16/2021 11:00:00 AM 2.06 35.708 0.06 7.04 5.71 13.31
3/16/2021 11:15:00 AM 2.08 35.744 0.06 7.04 5.58 13.3
3/16/2021 11:30:00 AM 2.12 35.816 0.06 7.05 5.56 13.3
3/16/2021 11:45:00 AM 2.16 35.888 0.06 7.05 5.52 13.29
3/16/2021 12:00:00 PM 2.21 35.978 0.06 7.06 5.66 13.28
3/16/2021 12:15:00 PM 2.26 36.068 0.06 7.06 5.51 13.27
3/16/2021 12:30:00 PM 2.31 36.158 0.06 7.06 5.6 13.25
3/16/2021 12:45:00 PM 2.34 36.212 0.06 7.07 5.5 13.22
3/16/2021 1:00:00 PM 2.35 36.23 0.06 7.06 5.5 13.2
3/16/2021 1:15:00 PM 2.35 36.23 0.06 7.06 5.55 13.19
3/16/2021 1:30:00 PM 2.35 36.23 0.06 7.07 5.61 13.18
3/16/2021 1:45:00 PM 2.35 36.23 0.06 7.07 5.53 13.16
3/16/2021 2:00:00 PM 2.35 36.23 0.06 7.07 5.55 13.16
3/16/2021 2:15:00 PM 2.34 36.212 0.06 7.07 5.53 13.16
3/16/2021 2:30:00 PM 2.36 36.248 0.06 7.07 5.5 13.17
3/16/2021 2:45:00 PM 2.4 36.32 0.06 7.07 5.48 13.16
3/16/2021 3:00:00 PM 2.43 36.374 0.06 7.07 5.48 13.16
3/16/2021 3:15:00 PM 2.46 36.428 0.06 7.07 5.47 13.15
3/16/2021 3:30:00 PM 2.5 36.5 0.06 7.08 5.56 13.15
3/16/2021 3:45:00 PM 2.55 36.59 0.06 7.09 5.43 13.14
3/16/2021 4:00:00 PM 2.58 36.644 0.06 7.08 5.44 13.12
3/16/2021 4:15:00 PM 2.61 36.698 0.06 7.09 5.53 13.11
3/16/2021 4:30:00 PM 2.62 36.716 0.06 7.08 5.66 13.09
3/16/2021 4:45:00 PM 2.63 36.734 0.06 7.09 5.43 13.08
3/16/2021 5:00:00 PM 2.63 36.734 0.06 7.08 5.59 13.06
3/16/2021 5:15:00 PM 2.62 36.716 0.06 7.07 5.54 13.05
3/16/2021 5:30:00 PM 2.6 36.68 0.06 7.07 5.53 13.04
3/16/2021 5:45:00 PM 2.59 36.662 0.06 7.07 5.57 13.02
3/16/2021 6:00:00 PM 2.58 36.644 0.06 7.05 5.5 13
3/16/2021 6:15:00 PM 2.57 36.626 0.06 7.05 5.65 12.99
3/16/2021 6:30:00 PM 2.57 36.626 0.061 7.03 5.55 12.98
3/16/2021 6:45:00 PM 2.56 36.608 0.061 7.03 5.64 12.97
3/16/2021 7:00:00 PM 2.55 36.59 0.061 7.02 5.64 12.96
3/16/2021 7:15:00 PM 2.55 36.59 0.061 7.03 5.67 12.95
3/16/2021 7:30:00 PM 2.55 36.59 0.061 7.02 5.66 12.95
3/16/2021 7:45:00 PM 2.54 36.572 0.061 7.02 5.59 12.95
3/16/2021 8:00:00 PM 2.54 36.572 0.061 7.02 5.53 12.96
3/16/2021 8:15:00 PM 2.54 36.572 0.061 7.02 5.57 12.95
3/16/2021 8:30:00 PM 2.54 36.572 0.061 7.01 5.76 12.96
3/16/2021 8:45:00 PM 2.54 36.572 0.061 7.02 5.6 12.95
3/16/2021 9:00:00 PM 2.54 36.572 0.061 7.01 5.63 12.96
3/16/2021 9:15:00 PM 2.54 36.572 0.061 7.01 5.94 12.96
3/16/2021 9:30:00 PM 2.54 36.572 0.061 7.01 5.71 12.96
3/16/2021 9:45:00 PM 2.54 36.572 0.061 7.02 5.63 12.96
3/16/2021 10:00:00 PM 2.54 36.572 0.061 7.01 5.54 12.96
3/16/2021 10:15:00 PM 2.54 36.572 0.061 7.01 5.74 12.96
3/16/2021 10:30:00 PM 2.54 36.572 0.061 7 5.56 12.96
3/16/2021 10:45:00 PM 2.54 36.572 0.061 7.01 5.68 12.96
3/16/2021 11:00:00 PM 2.54 36.572 0.061 7.01 5.51 12.96
3/16/2021 11:15:00 PM 2.54 36.572 0.061 7.01 5.53 12.96
3/16/2021 11:30:00 PM 2.54 36.572 0.061 7.01 5.81 12.96
3/16/2021 11:45:00 PM 2.54 36.572 0.061 7 5.73 12.96
3/17/2021 12:00:00 AM 2.53 36.554 0.061 7.01 5.65 12.96
3/17/2021 12:15:00 AM 2.53 36.554 0.061 7 5.48 12.95
3/17/2021 12:30:00 AM 2.53 36.554 0.061 7 5.72 12.95
3/17/2021 12:45:00 AM 2.53 36.554 0.061 7 5.55 12.95
3/17/2021 1:00:00 AM 2.53 36.554 0.061 6.99 5.59 12.95
3/17/2021 1:15:00 AM 2.53 36.554 0.061 6.76 5.59 12.95
3/17/2021 1:30:00 AM 2.53 36.554 0.061 6.93 5.54 12.95
3/17/2021 1:45:00 AM 2.53 36.554 0.061 7.01 5.61 12.95
3/17/2021 2:00:00 AM 2.53 36.554 0.062 6.99 5.71 12.95
3/17/2021 2:15:00 AM 2.53 36.554 0.062 6.99 5.64 12.95
3/17/2021 2:30:00 AM 2.53 36.554 0.062 6.99 5.58 12.95
3/17/2021 2:45:00 AM 2.53 36.554 0.062 6.98 5.58 12.95
3/17/2021 3:00:00 AM 2.53 36.554 0.062 6.99 5.55 12.95
3/17/2021 3:15:00 AM 2.54 36.572 0.062 7 5.67 12.95
3/17/2021 3:30:00 AM 2.54 36.572 0.062 7 5.67 12.95
3/17/2021 3:45:00 AM 2.54 36.572 0.062 7.01 5.65 12.94
3/17/2021 4:00:00 AM 2.54 36.572 0.062 7 5.64 12.95
3/17/2021 4:15:00 AM 2.54 36.572 0.062 7 5.56 12.95
3/17/2021 4:30:00 AM 2.54 36.572 0.062 7 5.59 12.95
3/17/2021 4:45:00 AM 2.54 36.572 0.062 7.01 5.54 12.95
3/17/2021 5:00:00 AM 2.55 36.59 0.062 7 5.66 12.95
3/17/2021 5:15:00 AM 2.55 36.59 0.062 7.01 5.59 12.95
3/17/2021 5:30:00 AM 2.56 36.608 0.062 7.01 5.53 12.95
3/17/2021 5:45:00 AM 2.56 36.608 0.062 7.01 5.58 12.95
3/17/2021 6:00:00 AM 2.57 36.626 0.062 7 5.6 12.95
3/17/2021 6:15:00 AM 2.58 36.644 0.062 7.02 5.6 12.95
3/17/2021 6:30:00 AM 2.58 36.644 0.062 7.02 5.58 12.95
3/17/2021 6:45:00 AM 2.59 36.662 0.062 7.01 5.53 12.96
3/17/2021 7:00:00 AM 2.6 36.68 0.062 7.02 5.56 12.97
3/17/2021 7:15:00 AM 2.61 36.698 0.062 7.02 5.51 12.98
3/17/2021 7:30:00 AM 2.63 36.734 0.062 7.02 5.53 13
3/17/2021 7:45:00 AM 2.64 36.752 0.062 7.03 5.47 13.02
3/17/2021 8:00:00 AM 2.66 36.788 0.062 7.04 5.51 13.03
3/17/2021 8:15:00 AM 2.69 36.842 0.062 7.05 5.37 13.04
3/17/2021 8:30:00 AM 2.73 36.914 0.062 7.05 5.5 13.05
3/17/2021 8:45:00 AM 2.77 36.986 0.062 7.07 5.33 13.05
3/17/2021 9:00:00 AM 2.81 37.058 0.062 7.08 5.46 13.06
3/17/2021 9:15:00 AM 2.86 37.148 0.062 7.07 5.39 13.05
3/17/2021 9:30:00 AM 2.92 37.256 0.062 7.09 5.64 13.04
3/17/2021 9:45:00 AM 3 37.4 0.062 7.09 5.38 13.03
3/17/2021 10:00:00 AM 3.09 37.562 0.062 7.1 5.28 13.02
3/17/2021 10:15:00 AM 3.19 37.742 0.062 7.1 5.51 12.99
3/17/2021 10:30:00 AM 3.3 37.94 0.062 7.11 5.36 12.96
3/17/2021 10:45:00 AM 3.44 38.192 0.062 7.12 5.22 12.93
3/17/2021 11:00:00 AM 3.62 38.516 0.062 7.12 5.31 12.88
3/17/2021 11:15:00 AM 3.9 39.02 0.062 7.13 5.42 12.81
3/17/2021 11:30:00 AM 4.12 39.416 0.062 7.13 5.21 12.74
3/17/2021 11:45:00 AM 4.35 39.83 0.062 7.14 5.42 12.67
3/17/2021 12:00:00 PM 4.57 40.226 0.062 7.15 5.22 12.59
3/17/2021 12:15:00 PM 4.79 40.622 0.062 7.16 5.3 12.51
3/17/2021 12:30:00 PM 5.01 41.018 0.062 7.17 5.22 12.43
3/17/2021 12:45:00 PM 5.23 41.414 0.062 7.17 5.25 12.36
3/17/2021 1:00:00 PM 5.44 41.792 0.062 7.17 5.28 12.28
3/17/2021 1:15:00 PM 5.64 42.152 0.062 7.17 5.41 12.22
3/17/2021 1:30:00 PM 5.82 42.476 0.062 7.19 5.22 12.15
3/17/2021 1:45:00 PM 5.97 42.746 0.062 7.19 5.34 12.1
3/17/2021 2:00:00 PM 6.09 42.962 0.062 7.2 5.34 12.06
3/17/2021 2:15:00 PM 6.2 43.16 0.062 7.2 5.36 12.01
3/17/2021 2:30:00 PM 6.27 43.286 0.062 7.21 5.46 11.97
3/17/2021 2:45:00 PM 6.33 43.394 0.062 7.21 5.53 11.94
3/17/2021 3:00:00 PM 6.37 43.466 0.062 7.21 5.42 11.92
3/17/2021 3:15:00 PM 6.38 43.484 0.062 7.21 5.5 11.9
3/17/2021 3:30:00 PM 6.36 43.448 0.062 7.21 5.54 11.89
3/17/2021 3:45:00 PM 6.31 43.358 0.062 7.2 5.52 11.89
3/17/2021 4:00:00 PM 6.26 43.268 0.062 7.19 5.73 11.89
3/17/2021 4:15:00 PM 6.19 43.142 0.062 7.18 5.64 11.89
3/17/2021 4:30:00 PM 6.09 42.962 0.062 7.17 5.62 11.9
3/17/2021 4:45:00 PM 6 42.8 0.062 7.16 5.74 11.91
3/17/2021 5:00:00 PM 5.92 42.656 0.062 7.14 5.65 11.91
3/17/2021 5:15:00 PM 5.84 42.512 0.062 7.14 5.82 11.92
3/17/2021 5:30:00 PM 5.77 42.386 0.062 7.13 5.89 11.93
3/17/2021 5:45:00 PM 5.71 42.278 0.062 7.11 5.8 11.94
3/17/2021 6:00:00 PM 5.63 42.134 0.062 7.1 5.96 11.94
3/17/2021 6:15:00 PM 5.54 41.972 0.062 7.08 5.82 11.94
3/17/2021 6:30:00 PM 5.44 41.792 0.062 7.06 6 11.95
3/17/2021 6:45:00 PM 5.32 41.576 0.063 7.04 6.09 11.97
3/17/2021 7:00:00 PM 5.22 41.396 0.063 7.03 6.05 11.99
3/17/2021 7:15:00 PM 5.12 41.216 0.063 7.03 6.03 12.02
3/17/2021 7:30:00 PM 5.02 41.036 0.063 7.02 6.16 12.04
3/17/2021 7:45:00 PM 4.92 40.856 0.063 7.01 6.17 12.07
3/17/2021 8:00:00 PM 4.83 40.694 0.063 7 6.28 12.1
3/17/2021 8:15:00 PM 4.74 40.532 0.063 6.99 6.27 12.13
3/17/2021 8:30:00 PM 4.65 40.37 0.063 6.99 6.21 12.16
3/17/2021 8:45:00 PM 4.57 40.226 0.063 6.98 6.32 12.19
3/17/2021 9:00:00 PM 4.48 40.064 0.063 6.98 6.2 12.22
3/17/2021 9:15:00 PM 4.4 39.92 0.063 6.96 6.17 12.25
3/17/2021 9:30:00 PM 4.32 39.776 0.063 6.95 6.27 12.28
3/17/2021 9:45:00 PM 4.24 39.632 0.064 6.93 6.41 12.3
3/17/2021 10:00:00 PM 4.16 39.488 0.064 6.93 6.29 12.33
3/17/2021 10:15:00 PM 4.09 39.362 0.064 6.93 6.14 12.35
3/17/2021 10:30:00 PM 4.03 39.254 0.064 6.92 6.28 12.38
3/17/2021 10:45:00 PM 3.98 39.164 0.064 6.92 6.37 12.39
3/17/2021 11:00:00 PM 3.94 39.092 0.064 6.92 6.23 12.41
3/17/2021 11:15:00 PM 3.9 39.02 0.064 6.92 6.18 12.42
3/17/2021 11:30:00 PM 3.87 38.966 0.064 6.93 6.09 12.43
3/17/2021 11:45:00 PM 3.85 38.93 0.064 6.93 6.36 12.44
3/18/2021 12:00:00 AM 3.84 38.912 0.064 6.93 6.64 12.44
3/18/2021 12:15:00 AM 3.83 38.894 0.064 6.93 7.09 12.45
3/18/2021 12:30:00 AM 3.82 38.876 0.064 6.94 7.36 12.45
3/18/2021 12:45:00 AM 3.82 38.876 0.064 6.95 7.19 12.45
3/18/2021 1:00:00 AM 3.81 38.858 0.064 6.96 8.27 12.46
3/18/2021 1:15:00 AM 3.81 38.858 0.064 6.96 6.77 12.46
3/18/2021 1:30:00 AM 3.8 38.84 0.064 6.97 6.57 12.46
3/18/2021 1:45:00 AM 3.79 38.822 0.064 6.98 6.24 12.46
3/18/2021 2:00:00 AM 3.79 38.822 0.064 6.98 6.17 12.46
3/18/2021 2:15:00 AM 3.78 38.804 0.064 6.97 6.07 12.46
3/18/2021 2:30:00 AM 3.78 38.804 0.064 6.98 6.04 12.46
3/18/2021 2:45:00 AM 3.78 38.804 0.064 6.98 5.87 12.46
3/18/2021 3:00:00 AM 3.77 38.786 0.064 6.98 6.02 12.46
3/18/2021 3:15:00 AM 3.77 38.786 0.064 6.98 5.98 12.46
3/18/2021 3:30:00 AM 3.77 38.786 0.064 6.98 5.98 12.45
3/18/2021 3:45:00 AM 3.77 38.786 0.064 6.99 6.16 12.45
3/18/2021 4:00:00 AM 3.76 38.768 0.064 6.99 5.93 12.45
3/18/2021 4:15:00 AM 3.76 38.768 0.064 6.76 5.88 12.45
3/18/2021 4:30:00 AM 3.76 38.768 0.064 7.01 5.9 12.45
3/18/2021 4:45:00 AM 3.75 38.75 0.064 7 5.79 12.45
3/18/2021 5:00:00 AM 3.75 38.75 0.064 7 5.76 12.46
3/18/2021 5:15:00 AM 3.74 38.732 0.064 6.99 6.29 12.46
3/18/2021 5:30:00 AM 3.74 38.732 0.064 6.99 6.09 12.46
3/18/2021 5:45:00 AM 3.73 38.714 0.064 6.99 6.09 12.46
3/18/2021 6:00:00 AM 3.72 38.696 0.064 6.99 6.01 12.46
3/18/2021 6:15:00 AM 3.72 38.696 0.064 7 5.89 12.46
3/18/2021 6:30:00 AM 3.71 38.678 0.064 7 5.8 12.46
3/18/2021 6:45:00 AM 3.71 38.678 0.064 7 5.9 12.46
3/18/2021 7:00:00 AM 3.7 38.66 0.064 7 5.74 12.47
3/18/2021 7:15:00 AM 3.7 38.66 0.064 7 5.71 12.48
3/18/2021 7:30:00 AM 3.7 38.66 0.064 7 5.74 12.49
3/18/2021 7:45:00 AM 3.7 38.66 0.064 7.01 5.9 12.51
3/18/2021 8:00:00 AM 3.71 38.678 0.064 7.02 5.85 12.52
3/18/2021 8:15:00 AM 3.72 38.696 0.064 7.02 5.83 12.53
3/18/2021 8:30:00 AM 3.73 38.714 0.064 7.02 5.99 12.53
3/18/2021 8:45:00 AM 3.74 38.732 0.063 6.81 5.97 12.55
3/18/2021 9:00:00 AM 3.76 38.768 0.064 7.05 6.11 12.56
3/18/2021 9:15:00 AM 3.78 38.804 0.065 7.04 6.45 12.57
3/18/2021 9:30:00 AM 3.81 38.858 0.066 7.05 6.56 12.58
3/18/2021 9:45:00 AM 3.84 38.912 0.067 7.06 7.09 12.58
3/18/2021 10:00:00 AM 3.87 38.966 0.067 7.07 6.76 12.57
3/18/2021 10:15:00 AM 3.9 39.02 0.067 7.07 7.32 12.58
3/18/2021 10:30:00 AM 3.93 39.074 0.067 7.07 7.12 12.58
3/18/2021 10:45:00 AM 3.98 39.164 0.067 7.08 7.43 12.57
3/18/2021 11:00:00 AM 4.02 39.236 0.067 7.08 7.37 12.57
3/18/2021 11:15:00 AM 4.05 39.29 0.067 7.08 7.42 12.56
3/18/2021 11:30:00 AM 4.08 39.344 0.067 7.09 7.12 12.55
3/18/2021 11:45:00 AM 4.11 39.398 0.067 7.09 7.86 12.55
3/18/2021 12:00:00 PM 4.15 39.47 0.067 7.09 8.32 12.54
3/18/2021 12:15:00 PM 4.2 39.56 0.067 7.09 8.95 12.54
3/18/2021 12:30:00 PM 4.25 39.65 0.068 7.09 9.6 12.52
3/18/2021 12:45:00 PM 4.29 39.722 0.067 7.09 10.35 12.5
3/18/2021 1:00:00 PM 4.35 39.83 0.067 7.09 10.19 12.48
3/18/2021 1:15:00 PM 4.38 39.884 0.068 7.09 11.03 12.47
3/18/2021 1:30:00 PM 4.39 39.902 0.068 7.09 10.8 12.45
3/18/2021 1:45:00 PM 4.39 39.902 0.068 7.11 10.87 12.44
3/18/2021 2:00:00 PM 4.37 39.866 0.068 7.11 12.38 12.42
3/18/2021 2:15:00 PM 4.36 39.848 0.068 7.1 12.08 12.43
3/18/2021 2:30:00 PM 4.36 39.848 0.069 7.11 12.03 12.43
3/18/2021 2:45:00 PM 4.34 39.812 0.069 7.1 13.07 12.42
3/18/2021 3:00:00 PM 4.32 39.776 0.069 7.1 13.71 12.42
3/18/2021 3:15:00 PM 4.28 39.704 0.07 7.1 13.61 12.41
3/18/2021 3:30:00 PM 4.25 39.65 0.07 7.1 14.05 12.4
3/18/2021 3:45:00 PM 4.22 39.596 0.071 7.09 14.13 12.39
3/18/2021 4:00:00 PM 4.19 39.542 0.071 7.09 14.92 12.4
3/18/2021 4:15:00 PM 4.15 39.47 0.071 7.09 15.41 12.42
3/18/2021 4:30:00 PM 4.11 39.398 0.071 7.08 16.13 12.43
3/18/2021 4:45:00 PM 4.07 39.326 0.072 7.08 16.14 12.44
3/18/2021 5:00:00 PM 4.03 39.254 0.072 7.06 16.29 12.44
3/18/2021 5:15:00 PM 3.99 39.182 0.072 7.06 19.2 12.44
3/18/2021 5:30:00 PM 3.94 39.092 0.073 7.05 19.46 12.45
3/18/2021 5:45:00 PM 3.9 39.02 0.073 7.04 18.3 12.45
3/18/2021 6:00:00 PM 3.85 38.93 0.074 7.04 19.2 12.46
3/18/2021 6:15:00 PM 3.81 38.858 0.074 7.01 18.65 12.47
3/18/2021 6:30:00 PM 3.77 38.786 0.074 7.02 20.7 12.48
3/18/2021 6:45:00 PM 3.73 38.714 0.074 7 22.11 12.5
3/18/2021 7:00:00 PM 3.68 38.624 0.074 7.01 20.64 12.51
3/18/2021 7:15:00 PM 3.64 38.552 0.074 7.01 17.54 12.52
3/18/2021 7:30:00 PM 3.6 38.48 0.073 6.83 80.47 12.54
3/18/2021 7:45:00 PM 3.55 38.39 0.074 7.02 18.85 12.55
3/18/2021 8:00:00 PM 3.51 38.318 0.074 7 21 12.57
3/18/2021 8:15:00 PM 3.46 38.228 0.074 7 20.87 12.59
3/18/2021 8:30:00 PM 3.42 38.156 0.074 6.99 23.83 12.6
3/18/2021 8:45:00 PM 3.37 38.066 0.074 6.99 20.47 12.62
3/18/2021 9:00:00 PM 3.33 37.994 0.074 6.99 21.8 12.64
3/18/2021 9:15:00 PM 3.29 37.922 0.073 6.98 18.76 12.66
3/18/2021 9:30:00 PM 3.24 37.832 0.073 6.99 18.92 12.67
3/18/2021 9:45:00 PM 3.2 37.76 0.073 6.98 17.63 12.69
3/18/2021 10:00:00 PM 3.15 37.67 0.073 6.97 16.81 12.71
3/18/2021 10:15:00 PM 3.11 37.598 0.073 6.97 16.59 12.73
3/18/2021 10:30:00 PM 3.06 37.508 0.073 6.98 15.95 12.74
3/18/2021 10:45:00 PM 3.01 37.418 0.073 6.97 15.24 12.76
3/18/2021 11:00:00 PM 2.96 37.328 0.073 6.96 14.94 12.78
3/18/2021 11:15:00 PM 2.91 37.238 0.072 6.96 14.05 12.8
3/18/2021 11:30:00 PM 2.87 37.166 0.072 6.97 14.51 12.82
3/18/2021 11:45:00 PM 2.82 37.076 0.072 6.97 13.29 12.83
3/19/2021 12:00:00 AM 2.78 37.004 0.072 6.97 13.42 12.85
3/19/2021 12:15:00 AM 2.73 36.914 0.072 6.97 13.17 12.87
3/19/2021 12:30:00 AM 2.68 36.824 0.072 6.97 12.62 12.89
3/19/2021 12:45:00 AM 2.65 36.77 0.071 6.78 11.76 12.91
3/19/2021 1:00:00 AM 2.6 36.68 0.071 6.98 11.45 12.92
3/19/2021 1:15:00 AM 2.55 36.59 0.071 6.97 11.76 12.94
3/19/2021 1:30:00 AM 2.51 36.518 0.071 6.96 11.77 12.96
3/19/2021 1:45:00 AM 2.46 36.428 0.071 6.97 11.63 12.98
3/19/2021 2:00:00 AM 2.41 36.338 0.071 6.97 10.83 13
3/19/2021 2:15:00 AM 2.35 36.23 0.071 6.97 10.77 13.02
3/19/2021 2:30:00 AM 2.29 36.122 0.07 6.97 10.3 13.04
3/19/2021 2:45:00 AM 2.23 36.014 0.07 6.96 10.15 13.06
3/19/2021 3:00:00 AM 2.17 35.906 0.07 6.97 9.99 13.08
3/19/2021 3:15:00 AM 2.12 35.816 0.07 6.96 9.72 13.11
3/19/2021 3:30:00 AM 2.05 35.69 0.07 6.96 9.6 13.13
3/19/2021 3:45:00 AM 1.99 35.582 0.07 6.95 9.34 13.16
3/19/2021 4:00:00 AM 1.94 35.492 0.07 6.96 9.42 13.18
3/19/2021 4:15:00 AM 1.88 35.384 0.07 6.96 9.37 13.21
3/19/2021 4:30:00 AM 1.84 35.312 0.07 6.96 9.06 13.23
3/19/2021 4:45:00 AM 1.78 35.204 0.07 6.96 8.81 13.26
3/19/2021 5:00:00 AM 1.74 35.132 0.069 6.96 8.59 13.28
3/19/2021 5:15:00 AM 1.7 35.06 0.069 6.96 8.57 13.3
3/19/2021 5:30:00 AM 1.66 34.988 0.069 6.96 8.5 13.32
3/19/2021 5:45:00 AM 1.62 34.916 0.069 6.95 8.35 13.34
3/19/2021 6:00:00 AM 1.58 34.844 0.069 6.96 8.36 13.36
3/19/2021 6:15:00 AM 1.53 34.754 0.069 6.96 8.2 13.38
3/19/2021 6:30:00 AM 1.49 34.682 0.069 6.97 8.27 13.41
3/19/2021 6:45:00 AM 1.45 34.61 0.069 6.97 8.12 13.44
3/19/2021 7:00:00 AM 1.41 34.538 0.069 6.97 8.06 13.47
3/19/2021 7:15:00 AM 1.38 34.484 0.069 6.98 7.88 13.5
3/19/2021 7:30:00 AM 1.35 34.43 0.069 7 7.67 13.55
3/19/2021 7:45:00 AM 1.31 34.358 0.069 7 7.89 13.58
3/19/2021 8:00:00 AM 1.3 34.34 0.069 7.01 7.66 13.61
3/19/2021 8:15:00 AM 1.3 34.34 0.068 7.02 7.35 13.63
3/19/2021 8:30:00 AM 1.33 34.394 0.068 7.02 7.36 13.64
3/19/2021 8:45:00 AM 1.39 34.502 0.068 7.03 7.23 13.65
3/19/2021 9:00:00 AM 1.47 34.646 0.068 7.04 7.36 13.64
3/19/2021 9:15:00 AM 1.56 34.808 0.068 7.04 7.08 13.63
3/19/2021 9:30:00 AM 1.68 35.024 0.068 7.06 7.14 13.61
3/19/2021 9:45:00 AM 1.84 35.312 0.068 7.07 7.01 13.57
3/19/2021 10:00:00 AM 2.02 35.636 0.068 7.08 6.85 13.52
3/19/2021 10:15:00 AM 2.2 35.96 0.067 7.09 6.93 13.47
3/19/2021 10:30:00 AM 2.39 36.302 0.067 7.11 6.85 13.41
3/19/2021 10:45:00 AM 2.59 36.662 0.067 7.12 6.75 13.36
3/19/2021 11:00:00 AM 2.8 37.04 0.067 7.14 6.81 13.29
3/19/2021 11:15:00 AM 3 37.4 0.067 7.14 6.57 13.23
3/19/2021 11:30:00 AM 3.21 37.778 0.067 7.15 6.57 13.15
3/19/2021 11:45:00 AM 3.41 38.138 0.067 7.16 6.62 13.09
3/19/2021 12:00:00 PM 3.61 38.498 0.067 7.17 6.5 13.02
3/19/2021 12:15:00 PM 3.8 38.84 0.066 7.17 6.37 12.96
3/19/2021 12:30:00 PM 3.98 39.164 0.066 7.17 6.34 12.89
3/19/2021 12:45:00 PM 4.16 39.488 0.066 7.18 6.35 12.83
3/19/2021 1:00:00 PM 4.32 39.776 0.066 7.18 6.23 12.77
3/19/2021 1:15:00 PM 4.46 40.028 0.066 7.19 6.19 12.72
3/19/2021 1:30:00 PM 4.59 40.262 0.066 7.19 6.17 12.67
3/19/2021 1:45:00 PM 4.7 40.46 0.066 7.2 6.18 12.62
3/19/2021 2:00:00 PM 4.79 40.622 0.066 7.2 6.23 12.58
3/19/2021 2:15:00 PM 4.85 40.73 0.066 7.2 6.23 12.55
3/19/2021 2:30:00 PM 4.9 40.82 0.066 7.2 6.23 12.52
3/19/2021 2:45:00 PM 4.92 40.856 0.066 7.19 6.34 12.5
3/19/2021 3:00:00 PM 4.92 40.856 0.066 7.18 6.35 12.49
3/19/2021 3:15:00 PM 4.88 40.784 0.066 7.18 6.38 12.49
3/19/2021 3:30:00 PM 4.83 40.694 0.066 7.18 6.21 12.48
3/19/2021 3:45:00 PM 4.76 40.568 0.066 7.17 6.3 12.49
3/19/2021 4:00:00 PM 4.69 40.442 0.066 7.17 6.15 12.49
3/19/2021 4:15:00 PM 4.6 40.28 0.066 7.16 6.3 12.51
3/19/2021 4:30:00 PM 4.48 40.064 0.066 7.15 6.14 12.53
3/19/2021 4:45:00 PM 4.37 39.866 0.066 7.14 6.37 12.55
3/19/2021 5:00:00 PM 4.27 39.686 0.066 7.13 6.21 12.57
3/19/2021 5:15:00 PM 4.18 39.524 0.066 7.11 6.41 12.59
3/19/2021 5:30:00 PM 4.11 39.398 0.066 7.09 6.26 12.6
3/19/2021 5:45:00 PM 4.04 39.272 0.066 7.09 6.25 12.62
3/19/2021 6:00:00 PM 3.96 39.128 0.066 7.08 6.31 12.63
3/19/2021 6:15:00 PM 3.86 38.948 0.066 7.06 6.25 12.65
3/19/2021 6:30:00 PM 3.75 38.75 0.066 7.05 7.07 12.67
3/19/2021 6:45:00 PM 3.65 38.57 0.066 7.03 6.51 12.69
3/19/2021 7:00:00 PM 3.56 38.408 0.066 7.02 6.29 12.71
3/19/2021 7:15:00 PM 3.47 38.246 0.066 7.01 6.42 12.74
3/19/2021 7:30:00 PM 3.39 38.102 0.066 7 6.46 12.76
3/19/2021 7:45:00 PM 3.31 37.958 0.066 6.98 6.46 12.79
3/19/2021 8:00:00 PM 3.23 37.814 0.066 6.99 6.47 12.82
3/19/2021 8:15:00 PM 3.16 37.688 0.066 6.98 6.64 12.85
3/19/2021 8:30:00 PM 3.09 37.562 0.066 6.98 6.45 12.88
3/19/2021 8:45:00 PM 3.02 37.436 0.067 6.97 6.36 12.9
3/19/2021 9:00:00 PM 2.94 37.292 0.066 6.97 6.47 12.93
3/19/2021 9:15:00 PM 2.88 37.184 0.066 6.97 6.37 12.95
3/19/2021 9:30:00 PM 2.81 37.058 0.066 6.96 6.41 12.98
3/19/2021 9:45:00 PM 2.75 36.95 0.066 6.96 6.42 13.01
3/19/2021 10:00:00 PM 2.69 36.842 0.066 6.96 6.18 13.03
3/19/2021 10:15:00 PM 2.63 36.734 0.066 6.96 6.18 13.05
3/19/2021 10:30:00 PM 2.58 36.644 0.066 6.96 6.24 13.08
3/19/2021 10:45:00 PM 2.52 36.536 0.066 6.95 6.34 13.1
3/19/2021 11:00:00 PM 2.46 36.428 0.066 6.96 6.24 13.12
3/19/2021 11:15:00 PM 2.4 36.32 0.066 6.96 6.11 13.14
3/19/2021 11:30:00 PM 2.35 36.23 0.066 6.97 6.07 13.16
3/19/2021 11:45:00 PM 2.3 36.14 0.066 6.96 6.19 13.18
3/20/2021 12:00:00 AM 2.25 36.05 0.066 6.96 6.18 13.21
3/20/2021 12:15:00 AM 2.2 35.96 0.066 6.96 5.93 13.23
3/20/2021 12:30:00 AM 2.15 35.87 0.066 6.97 6.16 13.25
3/20/2021 12:45:00 AM 2.1 35.78 0.066 6.96 6.09 13.27
3/20/2021 1:00:00 AM 2.05 35.69 0.066 6.97 6.05 13.29
3/20/2021 1:15:00 AM 2 35.6 0.066 6.96 5.95 13.31
3/20/2021 1:30:00 AM 1.95 35.51 0.066 6.96 6.05 13.33
3/20/2021 1:45:00 AM 1.9 35.42 0.066 6.96 5.94 13.35
3/20/2021 2:00:00 AM 1.86 35.348 0.066 6.96 5.88 13.37
3/20/2021 2:15:00 AM 1.81 35.258 0.066 6.96 5.99 13.39
3/20/2021 2:30:00 AM 1.77 35.186 0.066 6.96 5.99 13.41
3/20/2021 2:45:00 AM 1.73 35.114 0.066 6.97 6 13.43
3/20/2021 3:00:00 AM 1.69 35.042 0.066 6.97 5.88 13.44
3/20/2021 3:15:00 AM 1.65 34.97 0.066 6.97 5.95 13.46
3/20/2021 3:30:00 AM 1.61 34.898 0.066 6.97 6.12 13.48
3/20/2021 3:45:00 AM 1.57 34.826 0.066 6.97 5.98 13.49
3/20/2021 4:00:00 AM 1.53 34.754 0.066 6.98 5.78 13.51
3/20/2021 4:15:00 AM 1.49 34.682 0.066 6.98 6.02 13.53
3/20/2021 4:30:00 AM 1.45 34.61 0.066 6.97 5.83 13.54
3/20/2021 4:45:00 AM 1.42 34.556 0.066 6.98 5.75 13.56
3/20/2021 5:00:00 AM 1.38 34.484 0.066 6.97 5.81 13.57
3/20/2021 5:15:00 AM 1.35 34.43 0.066 6.98 5.6 13.59
3/20/2021 5:30:00 AM 1.32 34.376 0.066 6.98 5.67 13.6
3/20/2021 5:45:00 AM 1.28 34.304 0.066 6.97 5.8 13.61
3/20/2021 6:00:00 AM 1.25 34.25 0.066 6.98 5.8 13.63
3/20/2021 6:15:00 AM 1.22 34.196 0.066 6.98 6.11 13.64
3/20/2021 6:30:00 AM 1.2 34.16 0.066 6.98 5.74 13.66
3/20/2021 6:45:00 AM 1.18 34.124 0.066 6.98 5.63 13.69
3/20/2021 7:00:00 AM 1.16 34.088 0.066 7 5.57 13.72
3/20/2021 7:15:00 AM 1.15 34.07 0.066 7 5.79 13.75
3/20/2021 7:30:00 AM 1.14 34.052 0.066 7.01 5.62 13.78
3/20/2021 7:45:00 AM 1.14 34.052 0.066 7.02 5.64 13.8
3/20/2021 8:00:00 AM 1.15 34.07 0.066 7.03 5.72 13.81
3/20/2021 8:15:00 AM 1.18 34.124 0.065 7.03 5.59 13.83
3/20/2021 8:30:00 AM 1.24 34.232 0.065 7.04 5.62 13.83
3/20/2021 8:45:00 AM 1.35 34.43 0.065 7.04 5.54 13.81
3/20/2021 9:00:00 AM 1.48 34.664 0.065 7.05 5.49 13.79
3/20/2021 9:15:00 AM 1.63 34.934 0.065 7.07 5.55 13.75
3/20/2021 9:30:00 AM 1.8 35.24 0.065 7.08 5.47 13.71
3/20/2021 9:45:00 AM 2.02 35.636 0.065 7.09 5.5 13.64
3/20/2021 10:00:00 AM 2.26 36.068 0.065 7.11 5.52 13.57
3/20/2021 10:15:00 AM 2.52 36.536 0.064 7.12 5.51 13.49
3/20/2021 10:30:00 AM 2.78 37.004 0.064 7.14 5.38 13.41
3/20/2021 10:45:00 AM 3.06 37.508 0.064 7.15 5.42 13.32
3/20/2021 11:00:00 AM 3.35 38.03 0.064 7.17 5.38 13.22
3/20/2021 11:15:00 AM 3.64 38.552 0.064 7.18 5.51 13.13
3/20/2021 11:30:00 AM 3.92 39.056 0.064 7.18 5.25 13.03
3/20/2021 11:45:00 AM 4.19 39.542 0.064 7.19 5.37 12.93
3/20/2021 12:00:00 PM 4.46 40.028 0.064 7.21 5.38 12.84
3/20/2021 12:15:00 PM 4.72 40.496 0.064 7.21 5.44 12.75
3/20/2021 12:30:00 PM 4.96 40.928 0.064 7.22 5.39 12.66
3/20/2021 12:45:00 PM 5.19 41.342 0.064 7.22 5.36 12.58
3/20/2021 1:00:00 PM 5.39 41.702 0.064 7.23 5.32 12.51
3/20/2021 1:15:00 PM 5.58 42.044 0.064 7.23 5.33 12.44
3/20/2021 1:30:00 PM 5.75 42.35 0.064 7.23 5.39 12.37
3/20/2021 1:45:00 PM 5.91 42.638 0.064 7.23 5.43 12.31
3/20/2021 2:00:00 PM 6.03 42.854 0.064 7.23 5.41 12.26
3/20/2021 2:15:00 PM 6.14 43.052 0.064 7.24 5.38 12.21
3/20/2021 2:30:00 PM 6.22 43.196 0.064 7.23 5.5 12.18
3/20/2021 2:45:00 PM 6.27 43.286 0.064 7.23 5.51 12.15
3/20/2021 3:00:00 PM 6.29 43.322 0.064 7.23 5.48 12.13
3/20/2021 3:15:00 PM 6.28 43.304 0.064 7.22 5.56 12.11
3/20/2021 3:30:00 PM 6.24 43.232 0.064 7.21 5.53 12.1
3/20/2021 3:45:00 PM 6.17 43.106 0.064 7.21 5.55 12.1
3/20/2021 4:00:00 PM 6.09 42.962 0.064 7.21 5.54 12.1
3/20/2021 4:15:00 PM 6.01 42.818 0.064 7.18 5.68 12.11
3/20/2021 4:30:00 PM 5.88 42.584 0.064 7.18 5.59 12.07
3/20/2021 4:45:00 PM 5.77 42.386 0.064 7.16 5.74 12.12
3/20/2021 5:00:00 PM 5.66 42.188 0.064 7.16 5.8 12.15
3/20/2021 5:15:00 PM 5.57 42.026 0.064 7.13 6.01 12.16
3/20/2021 5:30:00 PM 5.49 41.882 0.064 7.13 6.32 12.18
3/20/2021 5:45:00 PM 5.41 41.738 0.064 7.12 6.02 12.19
3/20/2021 6:00:00 PM 5.33 41.594 0.064 7.11 6.12 12.2
3/20/2021 6:15:00 PM 5.22 41.396 0.064 7.1 5.93 12.22
3/20/2021 6:30:00 PM 5.09 41.162 0.064 7.08 6.14 12.24
3/20/2021 6:45:00 PM 4.96 40.928 0.065 7.08 6.05 12.26
3/20/2021 7:00:00 PM 4.85 40.73 0.065 7.06 6.07 12.29
3/20/2021 7:15:00 PM 4.74 40.532 0.065 7.04 6.22 12.32
3/20/2021 7:30:00 PM 4.63 40.334 0.064 7.03 6.49 12.35
3/20/2021 7:45:00 PM 4.53 40.154 0.064 7.02 6.36 12.38
3/20/2021 8:00:00 PM 4.43 39.974 0.064 7.01 6.33 12.42
3/20/2021 8:15:00 PM 4.33 39.794 0.064 6.99 6.17 12.45
3/20/2021 8:30:00 PM 4.24 39.632 0.064 6.96 6.05 12.49
3/20/2021 8:45:00 PM 4.15 39.47 0.064 6.95 6.29 12.52
3/20/2021 9:00:00 PM 4.06 39.308 0.064 6.94 6.15 12.55
3/20/2021 9:15:00 PM 3.98 39.164 0.064 6.93 6.16 12.58
3/20/2021 9:30:00 PM 3.89 39.002 0.065 6.92 6.22 12.61
3/20/2021 9:45:00 PM 3.81 38.858 0.065 6.93 5.99 12.64
3/20/2021 10:00:00 PM 3.73 38.714 0.065 6.93 5.87 12.67
3/20/2021 10:15:00 PM 3.66 38.588 0.065 6.93 5.82 12.69
3/20/2021 10:30:00 PM 3.59 38.462 0.065 6.92 5.67 12.72
3/20/2021 10:45:00 PM 3.52 38.336 0.065 6.92 5.75 12.75
3/20/2021 11:00:00 PM 3.45 38.21 0.065 6.93 5.75 12.77
3/20/2021 11:15:00 PM 3.38 38.084 0.065 6.93 5.66 12.79
3/20/2021 11:30:00 PM 3.32 37.976 0.065 6.93 5.75 12.82
3/20/2021 11:45:00 PM 3.25 37.85 0.065 6.93 5.76 12.84
3/21/2021 12:00:00 AM 3.19 37.742 0.065 6.94 5.69 12.87
3/21/2021 12:15:00 AM 3.13 37.634 0.065 6.93 5.65 12.89
3/21/2021 12:30:00 AM 3.07 37.526 0.065 6.94 5.63 12.91
3/21/2021 12:45:00 AM 3.01 37.418 0.065 6.93 5.81 12.93
3/21/2021 1:00:00 AM 2.95 37.31 0.065 6.93 5.62 12.96
3/21/2021 1:15:00 AM 2.9 37.22 0.065 6.94 5.62 12.98
3/21/2021 1:30:00 AM 2.84 37.112 0.065 6.94 5.53 13
3/21/2021 1:45:00 AM 2.78 37.004 0.065 6.94 5.64 13.02
3/21/2021 2:00:00 AM 2.73 36.914 0.065 6.95 5.56 13.04
3/21/2021 2:15:00 AM 2.67 36.806 0.065 6.94 5.58 13.06
3/21/2021 2:30:00 AM 2.62 36.716 0.065 6.95 5.8 13.07
3/21/2021 2:45:00 AM 2.57 36.626 0.065 6.94 5.6 13.09
3/21/2021 3:00:00 AM 2.52 36.536 0.065 6.95 5.61 13.11
3/21/2021 3:15:00 AM 2.47 36.446 0.065 6.95 5.85 13.13
3/21/2021 3:30:00 AM 2.42 36.356 0.065 6.94 5.89 13.15
3/21/2021 3:45:00 AM 2.37 36.266 0.065 6.95 5.59 13.17
3/21/2021 4:00:00 AM 2.32 36.176 0.065 6.94 5.58 13.19
3/21/2021 4:15:00 AM 2.27 36.086 0.065 6.95 5.55 13.21
3/21/2021 4:30:00 AM 2.23 36.014 0.065 6.95 5.68 13.22
3/21/2021 4:45:00 AM 2.18 35.924 0.065 6.95 5.61 13.24
3/21/2021 5:00:00 AM 2.14 35.852 0.065 6.95 5.6 13.26
3/21/2021 5:15:00 AM 2.1 35.78 0.065 6.96 5.58 13.28
3/21/2021 5:30:00 AM 2.05 35.69 0.065 6.96 5.66 13.3
3/21/2021 5:45:00 AM 2.01 35.618 0.065 6.95 5.44 13.31
3/21/2021 6:00:00 AM 1.97 35.546 0.065 6.96 5.49 13.33
3/21/2021 6:15:00 AM 1.93 35.474 0.065 6.96 5.41 13.35
3/21/2021 6:30:00 AM 1.9 35.42 0.065 6.97 5.55 13.38
3/21/2021 6:45:00 AM 1.87 35.366 0.065 6.97 5.55 13.41
3/21/2021 7:00:00 AM 1.84 35.312 0.065 6.98 5.41 13.45
3/21/2021 7:15:00 AM 1.82 35.276 0.065 6.99 5.39 13.48
3/21/2021 7:30:00 AM 1.81 35.258 0.065 6.99 5.49 13.52
3/21/2021 7:45:00 AM 1.8 35.24 0.065 7.01 5.37 13.54
3/21/2021 8:00:00 AM 1.8 35.24 0.065 7.01 5.32 13.56
3/21/2021 8:15:00 AM 1.82 35.276 0.064 7.02 5.31 13.57
3/21/2021 8:30:00 AM 1.89 35.402 0.064 7.03 5.35 13.57
3/21/2021 8:45:00 AM 2 35.6 0.064 7.04 5.32 13.56
3/21/2021 9:00:00 AM 2.13 35.834 0.064 7.05 5.29 13.53
3/21/2021 9:15:00 AM 2.28 36.104 0.064 7.07 5.31 13.5
3/21/2021 9:30:00 AM 2.46 36.428 0.064 7.08 5.43 13.46
3/21/2021 9:45:00 AM 2.68 36.824 0.064 7.09 5.26 13.41
3/21/2021 10:00:00 AM 2.93 37.274 0.064 7.11 5.32 13.33
3/21/2021 10:15:00 AM 3.19 37.742 0.064 7.13 5.33 13.26
3/21/2021 10:30:00 AM 3.47 38.246 0.064 7.15 5.33 13.17
3/21/2021 10:45:00 AM 3.77 38.786 0.064 7.16 5.29 13.08
3/21/2021 11:00:00 AM 4.07 39.326 0.064 7.17 5.28 12.98
3/21/2021 11:15:00 AM 4.37 39.866 0.064 7.18 5.21 12.88
3/21/2021 11:30:00 AM 4.66 40.388 0.063 7.2 5.34 12.78
3/21/2021 11:45:00 AM 4.94 40.892 0.063 7.21 5.27 12.68
3/21/2021 12:00:00 PM 5.22 41.396 0.063 7.22 5.17 12.59
3/21/2021 12:15:00 PM 5.49 41.882 0.063 7.21 5.18 12.5
3/21/2021 12:30:00 PM 5.74 42.332 0.063 7.23 5.22 12.41
3/21/2021 12:45:00 PM 5.98 42.764 0.063 7.23 5.34 12.33
3/21/2021 1:00:00 PM 6.19 43.142 0.063 7.24 5.23 12.25
3/21/2021 1:15:00 PM 6.39 43.502 0.063 7.25 5.34 12.18
3/21/2021 1:30:00 PM 6.56 43.808 0.063 7.26 5.5 12.12
3/21/2021 1:45:00 PM 6.72 44.096 0.063 7.25 5.36 12.06
3/21/2021 2:00:00 PM 6.86 44.348 0.063 7.26 5.37 12.01
3/21/2021 2:15:00 PM 6.97 44.546 0.063 7.26 5.38 11.96
3/21/2021 2:30:00 PM 7.05 44.69 0.063 7.26 5.39 11.92
3/21/2021 2:45:00 PM 7.11 44.798 0.063 7.25 5.36 11.89
3/21/2021 3:00:00 PM 7.13 44.834 0.063 7.26 5.49 11.86
3/21/2021 3:15:00 PM 7.12 44.816 0.063 7.25 5.56 11.85
3/21/2021 3:30:00 PM 7.07 44.726 0.063 7.24 5.5 11.84
3/21/2021 3:45:00 PM 6.99 44.582 0.063 7.23 5.49 11.84
3/21/2021 4:00:00 PM 6.91 44.438 0.063 7.23 5.32 11.84
3/21/2021 4:15:00 PM 6.81 44.258 0.063 7.2 5.31 11.85
3/21/2021 4:30:00 PM 6.68 44.024 0.063 7.2 5.66 11.86
3/21/2021 4:45:00 PM 6.56 43.808 0.063 7.18 5.59 11.87
3/21/2021 5:00:00 PM 6.44 43.592 0.063 7.17 5.65 11.89
3/21/2021 5:15:00 PM 6.34 43.412 0.063 7.16 5.47 11.9
3/21/2021 5:30:00 PM 6.26 43.268 0.063 7.14 5.88 11.91
3/21/2021 5:45:00 PM 6.17 43.106 0.063 7.13 5.7 11.93
3/21/2021 6:00:00 PM 6.09 42.962 0.063 7.12 5.71 11.94
3/21/2021 6:15:00 PM 5.98 42.764 0.063 7.11 5.78 11.95
3/21/2021 6:30:00 PM 5.85 42.53 0.063 7.1 5.67 11.97
3/21/2021 6:45:00 PM 5.72 42.296 0.063 6.75 6.73 11.99
3/21/2021 7:00:00 PM 5.59 42.062 0.063 7.07 5.78 12.02
3/21/2021 7:15:00 PM 5.47 41.846 0.063 7.01 5.92 12.05
3/21/2021 7:30:00 PM 5.35 41.63 0.063 7.03 5.81 12.08
3/21/2021 7:45:00 PM 5.24 41.432 0.064 7.03 5.75 12.11
3/21/2021 8:00:00 PM 5.13 41.234 0.064 7.02 5.84 12.14
3/21/2021 8:15:00 PM 5.02 41.036 0.064 7.01 5.87 12.18
3/21/2021 8:30:00 PM 4.91 40.838 0.064 7.01 5.94 12.21
3/21/2021 8:45:00 PM 4.81 40.658 0.064 6.98 5.96 12.25
3/21/2021 9:00:00 PM 4.71 40.478 0.064 6.98 5.94 12.28
3/21/2021 9:15:00 PM 4.62 40.316 0.064 6.99 5.99 12.31
3/21/2021 9:30:00 PM 4.52 40.136 0.064 6.96 16.23 12.35
3/21/2021 9:45:00 PM 4.43 39.974 0.064 6.97 6.08 12.38
3/21/2021 10:00:00 PM 4.34 39.812 0.064 6.96 106.73 12.41
3/21/2021 10:15:00 PM 4.25 39.65 0.063 6.97 6.78 12.44
3/21/2021 10:30:00 PM 4.17 39.506 0.063 6.96 5.89 12.47
3/21/2021 10:45:00 PM 4.09 39.362 0.063 6.95 5.69 12.5
3/21/2021 11:00:00 PM 4.02 39.236 0.063 6.95 5.64 12.52
3/21/2021 11:15:00 PM 3.94 39.092 0.063 6.95 5.68 12.55
3/21/2021 11:30:00 PM 3.87 38.966 0.063 6.94 5.67 12.57
3/21/2021 11:45:00 PM 3.8 38.84 0.063 6.94 5.61 12.6
3/22/2021 12:00:00 AM 3.73 38.714 0.063 6.94 5.48 12.62
3/22/2021 12:15:00 AM 3.66 38.588 0.064 6.93 5.61 12.65
3/22/2021 12:30:00 AM 3.6 38.48 0.064 6.94 5.54 12.67
3/22/2021 12:45:00 AM 3.53 38.354 0.064 6.94 5.59 12.69
3/22/2021 1:00:00 AM 3.47 38.246 0.064 6.94 5.65 12.71
3/22/2021 1:15:00 AM 3.41 38.138 0.064 6.95 5.59 12.73
3/22/2021 1:30:00 AM 3.35 38.03 0.064 6.94 5.46 12.76
3/22/2021 1:45:00 AM 3.29 37.922 0.064 6.94 5.5 12.78
3/22/2021 2:00:00 AM 3.23 37.814 0.064 6.95 5.57 12.8
3/22/2021 2:15:00 AM 3.17 37.706 0.064 6.95 5.42 12.82
3/22/2021 2:30:00 AM 3.12 37.616 0.064 6.95 5.53 12.84
3/22/2021 2:45:00 AM 3.06 37.508 0.064 6.95 5.44 12.86
3/22/2021 3:00:00 AM 3 37.4 0.064 6.94 5.4 12.88
3/22/2021 3:15:00 AM 2.95 37.31 0.064 6.95 5.3 12.9
3/22/2021 3:30:00 AM 2.9 37.22 0.064 6.95 5.43 12.92
3/22/2021 3:45:00 AM 2.84 37.112 0.064 6.95 5.42 12.94
3/22/2021 4:00:00 AM 2.79 37.022 0.064 6.96 5.42 12.96
3/22/2021 4:15:00 AM 2.74 36.932 0.064 6.95 5.36 12.98
3/22/2021 4:30:00 AM 2.69 36.842 0.064 6.95 5.31 13
3/22/2021 4:45:00 AM 2.64 36.752 0.064 6.95 5.43 13.01
3/22/2021 5:00:00 AM 2.59 36.662 0.064 6.95 5.68 13.03
3/22/2021 5:15:00 AM 2.54 36.572 0.064 6.95 5.51 13.05
3/22/2021 5:30:00 AM 2.5 36.5 0.064 6.95 5.43 13.06
3/22/2021 5:45:00 AM 2.45 36.41 0.064 6.96 5.38 13.08
3/22/2021 6:00:00 AM 2.41 36.338 0.064 6.95 5.46 13.1
3/22/2021 6:15:00 AM 2.36 36.248 0.064 6.96 5.38 13.12
3/22/2021 6:30:00 AM 2.33 36.194 0.064 6.96 5.3 13.15
3/22/2021 6:45:00 AM 2.29 36.122 0.064 6.97 5.27 13.19
3/22/2021 7:00:00 AM 2.27 36.086 0.064 6.98 5.22 13.23
3/22/2021 7:15:00 AM 2.24 36.032 0.064 6.98 5.39 13.26
3/22/2021 7:30:00 AM 2.23 36.014 0.064 7 5.3 13.3
3/22/2021 7:45:00 AM 2.22 35.996 0.064 7.01 5.23 13.32
3/22/2021 8:00:00 AM 2.22 35.996 0.064 7.02 5.15 13.34
3/22/2021 8:15:00 AM 2.25 36.05 0.063 7.02 5.4 13.36
3/22/2021 8:30:00 AM 2.32 36.176 0.063 7.03 5.37 13.36
3/22/2021 8:45:00 AM 2.43 36.374 0.063 7.04 5.32 13.35
3/22/2021 9:00:00 AM 2.57 36.626 0.063 7.06 5.23 13.33
3/22/2021 9:15:00 AM 2.73 36.914 0.063 7.07 5.21 13.29
3/22/2021 9:30:00 AM 2.91 37.238 0.063 7.09 5.19 13.25
3/22/2021 9:45:00 AM 3.13 37.634 0.063 7.1 5.18 13.19
3/22/2021 10:00:00 AM 3.39 38.102 0.063 7.12 5.3 13.11
3/22/2021 10:15:00 AM 3.66 38.588 0.063 7.13 5.1 13.04
3/22/2021 10:30:00 AM 3.95 39.11 0.063 7.15 5.08 12.95
3/22/2021 10:45:00 AM 4.25 39.65 0.063 7.16 5.15 12.86
3/22/2021 11:00:00 AM 4.55 40.19 0.063 7.19 5.15 12.76
3/22/2021 11:15:00 AM 4.85 40.73 0.063 7.2 5.08 12.66
3/22/2021 11:30:00 AM 5.15 41.27 0.062 7.22 5.09 12.57
3/22/2021 11:45:00 AM 5.44 41.792 0.062 7.22 5.04 12.47
3/22/2021 12:00:00 PM 5.72 42.296 0.062 7.23 5.08 12.38
3/22/2021 12:15:00 PM 5.98 42.764 0.062 7.25 5.06 12.28
3/22/2021 12:30:00 PM 6.24 43.232 0.062 7.24 5.14 12.2
3/22/2021 12:45:00 PM 6.48 43.664 0.062 7.26 5.14 12.12
3/22/2021 1:00:00 PM 6.7 44.06 0.062 7.28 5.13 12.04
3/22/2021 1:15:00 PM 6.89 44.402 0.062 7.28 5.18 11.98
3/22/2021 1:30:00 PM 7.07 44.726 0.062 7.28 5.29 11.91
3/22/2021 1:45:00 PM 7.22 44.996 0.062 7.29 5.42 11.86
3/22/2021 2:00:00 PM 7.36 45.248 0.062 7.29 5.15 11.8
3/22/2021 2:15:00 PM 7.47 45.446 0.062 7.29 5.15 11.76
3/22/2021 2:30:00 PM 7.55 45.59 0.062 7.28 5.17 11.72
3/22/2021 2:45:00 PM 7.6 45.68 0.062 7.28 5.31 11.69
3/22/2021 3:00:00 PM 7.62 45.716 0.062 7.28 5.46 11.67
3/22/2021 3:15:00 PM 7.61 45.698 0.062 7.28 5.34 11.65
3/22/2021 3:30:00 PM 7.56 45.608 0.062 7.27 5.4 11.64
3/22/2021 3:45:00 PM 7.48 45.464 0.062 7.26 5.46 11.64
3/22/2021 4:00:00 PM 7.39 45.302 0.062 7.25 5.42 11.65
3/22/2021 4:15:00 PM 7.3 45.14 0.062 7.24 5.66 11.65
3/22/2021 4:30:00 PM 7.18 44.924 0.062 7.23 5.53 11.66
3/22/2021 4:45:00 PM 7.04 44.672 0.062 7.21 5.55 11.68
3/22/2021 5:00:00 PM 6.92 44.456 0.062 7.19 5.56 11.69
3/22/2021 5:15:00 PM 6.82 44.276 0.062 7.19 5.55 11.71
3/22/2021 5:30:00 PM 6.73 44.114 0.062 7.17 5.59 11.72
3/22/2021 5:45:00 PM 6.64 43.952 0.062 7.16 5.69 11.73
3/22/2021 6:00:00 PM 6.55 43.79 0.062 7.14 5.72 11.74
3/22/2021 6:15:00 PM 6.46 43.628 0.062 7.12 5.88 11.75
3/22/2021 6:30:00 PM 6.34 43.412 0.062 7.1 5.72 11.75
3/22/2021 6:45:00 PM 6.2 43.16 0.062 7.09 5.82 11.77
3/22/2021 7:00:00 PM 6.07 42.926 0.062 7.07 6.18 11.8
3/22/2021 7:15:00 PM 5.95 42.71 0.062 7.07 5.95 11.82
3/22/2021 7:30:00 PM 5.83 42.494 0.063 7.05 5.67 11.85
3/22/2021 7:45:00 PM 5.72 42.296 0.063 7.05 6.22 11.89
3/22/2021 8:00:00 PM 5.61 42.098 0.063 7.04 5.94 11.92
3/22/2021 8:15:00 PM 5.5 41.9 0.063 7.02 6.29 11.96
3/22/2021 8:30:00 PM 5.4 41.72 0.063 7.01 6.1 11.99
3/22/2021 8:45:00 PM 5.29 41.522 0.063 7 5.99 12.02
3/22/2021 9:00:00 PM 5.2 41.36 0.063 6.99 6.04 12.05
3/22/2021 9:15:00 PM 5.1 41.18 0.063 6.99 6.25 12.09
3/22/2021 9:30:00 PM 5 41 0.063 6.98 6.15 12.12
3/22/2021 9:45:00 PM 4.91 40.838 0.063 6.97 6.1 12.14
3/22/2021 10:00:00 PM 4.82 40.676 0.063 6.96 5.98 12.18
3/22/2021 10:15:00 PM 4.73 40.514 0.063 6.95 5.76 12.21
3/22/2021 10:30:00 PM 4.64 40.352 0.063 6.95 5.73 12.24
3/22/2021 10:45:00 PM 4.56 40.208 0.063 6.94 5.84 12.27
3/22/2021 11:00:00 PM 4.48 40.064 0.063 6.94 5.85 12.3
3/22/2021 11:15:00 PM 4.41 39.938 0.063 6.94 5.71 12.32
3/22/2021 11:30:00 PM 4.33 39.794 0.063 6.93 5.68 12.35
3/22/2021 11:45:00 PM 4.26 39.668 0.063 6.93 5.64 12.38
3/23/2021 12:00:00 AM 4.19 39.542 0.063 6.94 5.83 12.4
3/23/2021 12:15:00 AM 4.12 39.416 0.063 6.94 5.69 12.43
3/23/2021 12:30:00 AM 4.05 39.29 0.063 6.94 6.11 12.45
3/23/2021 12:45:00 AM 3.99 39.182 0.063 6.94 5.99 12.47
3/23/2021 1:00:00 AM 3.93 39.074 0.063 6.95 6.1 12.49
3/23/2021 1:15:00 AM 3.87 38.966 0.063 6.94 5.88 12.52
3/23/2021 1:30:00 AM 3.81 38.858 0.063 6.95 5.92 12.54
3/23/2021 1:45:00 AM 3.75 38.75 0.063 6.95 5.88 12.56
3/23/2021 2:00:00 AM 3.69 38.642 0.063 6.95 5.94 12.57
3/23/2021 2:15:00 AM 3.64 38.552 0.063 6.95 5.97 12.6
3/23/2021 2:30:00 AM 3.58 38.444 0.063 6.95 5.88 12.62
3/23/2021 2:45:00 AM 3.53 38.354 0.063 6.95 5.67 12.64
3/23/2021 3:00:00 AM 3.47 38.246 0.063 6.95 5.8 12.65
3/23/2021 3:15:00 AM 3.42 38.156 0.063 6.96 5.63 12.67
3/23/2021 3:30:00 AM 3.37 38.066 0.063 6.96 5.84 12.69
3/23/2021 3:45:00 AM 3.32 37.976 0.063 6.96 5.7 12.7
3/23/2021 4:00:00 AM 3.27 37.886 0.063 6.95 5.9 12.73
3/23/2021 4:15:00 AM 3.22 37.796 0.063 6.96 5.78 12.75
3/23/2021 4:30:00 AM 3.17 37.706 0.063 6.95 5.89 12.76
3/23/2021 4:45:00 AM 3.12 37.616 0.063 6.96 5.6 12.79
3/23/2021 5:00:00 AM 3.07 37.526 0.063 6.96 5.6 12.8
3/23/2021 5:15:00 AM 3.03 37.454 0.063 6.96 5.89 12.82
3/23/2021 5:30:00 AM 2.98 37.364 0.063 6.96 5.54 12.83
3/23/2021 5:45:00 AM 2.94 37.292 0.063 6.97 5.47 12.86
3/23/2021 6:00:00 AM 2.89 37.202 0.063 6.96 5.54 12.87
3/23/2021 6:15:00 AM 2.85 37.13 0.063 6.97 5.68 12.89
3/23/2021 6:30:00 AM 2.82 37.076 0.063 6.97 5.55 12.92
3/23/2021 6:45:00 AM 2.79 37.022 0.063 6.98 5.5 12.97
3/23/2021 7:00:00 AM 2.77 36.986 0.063 7 5.3 13
3/23/2021 7:15:00 AM 2.75 36.95 0.063 7 5.46 13.04
3/23/2021 7:30:00 AM 2.75 36.95 0.063 7.01 5.51 13.07
3/23/2021 7:45:00 AM 2.75 36.95 0.063 7.02 5.25 13.1
3/23/2021 8:00:00 AM 2.77 36.986 0.062 7.04 5.39 13.12
3/23/2021 8:15:00 AM 2.8 37.04 0.062 7.05 5.33 13.13
3/23/2021 8:30:00 AM 2.87 37.166 0.062 7.06 5.29 13.13
3/23/2021 8:45:00 AM 2.97 37.346 0.062 7.07 5.29 13.12
3/23/2021 9:00:00 AM 3.11 37.598 0.062 7.09 5.26 13.1
3/23/2021 9:15:00 AM 3.27 37.886 0.062 7.1 5.44 13.07
3/23/2021 9:30:00 AM 3.45 38.21 0.062 7.11 5.23 13.03
3/23/2021 9:45:00 AM 3.67 38.606 0.062 7.13 5.32 12.97
3/23/2021 10:00:00 AM 3.92 39.056 0.062 7.14 5.22 12.91
3/23/2021 10:15:00 AM 4.18 39.524 0.062 7.16 5.19 12.84
3/23/2021 10:30:00 AM 4.46 40.028 0.062 7.18 5.2 12.76
3/23/2021 10:45:00 AM 4.75 40.55 0.062 7.19 5.25 12.67
3/23/2021 11:00:00 AM 5.04 41.072 0.061 7.21 5.15 12.58
3/23/2021 11:15:00 AM 5.32 41.576 0.061 7.23 5.34 12.5
3/23/2021 11:30:00 AM 5.57 42.026 0.061 7.24 5.3 12.41
3/23/2021 11:45:00 AM 5.84 42.512 0.061 7.25 5.18 12.33
3/23/2021 12:00:00 PM 6.09 42.962 0.061 7.26 5.21 12.25
3/23/2021 12:15:00 PM 6.28 43.304 0.061 7.26 5.23 12.17
3/23/2021 12:30:00 PM 6.49 43.682 0.061 7.26 5.23 12.11
3/23/2021 12:45:00 PM 6.67 44.006 0.06 7.05 5.29 12.05
3/23/2021 1:00:00 PM 6.88 44.384 0.061 7.3 5.25 11.98
3/23/2021 1:15:00 PM 7 44.6 0.061 7.28 5.22 11.93
3/23/2021 1:30:00 PM 7.12 44.816 0.061 7.28 6.66 11.88
3/23/2021 1:45:00 PM 7.21 44.978 0.061 7.28 5.74 11.85
3/23/2021 2:00:00 PM 7.26 45.068 0.061 7.28 5.48 11.81
3/23/2021 2:15:00 PM 7.28 45.104 0.061 7.28 5.52 11.8
3/23/2021 2:30:00 PM 7.32 45.176 0.061 7.29 5.54 11.78
3/23/2021 2:45:00 PM 7.33 45.194 0.061 7.28 5.35 11.77
3/23/2021 3:00:00 PM 7.29 45.122 0.061 7.27 5.47 11.75
3/23/2021 3:15:00 PM 7.27 45.086 0.061 7.27 5.45 11.75
3/23/2021 3:30:00 PM 7.26 45.068 0.061 7.27 5.57 11.74
3/23/2021 3:45:00 PM 7.24 45.032 0.061 7.26 5.51 11.74
3/23/2021 4:00:00 PM 7.2 44.96 0.061 7.26 5.54 11.74
3/23/2021 4:15:00 PM 7.17 44.906 0.061 7.26 5.45 11.74
3/23/2021 4:30:00 PM 7.15 44.87 0.061 7.25 5.58 11.74
3/23/2021 4:45:00 PM 7.1 44.78 0.061 7.24 5.51 11.73
3/23/2021 5:00:00 PM 7.03 44.654 0.061 7.22 5.6 11.72
3/23/2021 5:15:00 PM 6.98 44.564 0.061 7.22 5.72 11.73
3/23/2021 5:30:00 PM 6.94 44.492 0.061 7.21 5.58 11.73
3/23/2021 5:45:00 PM 6.87 44.366 0.061 7.19 5.55 11.72
3/23/2021 6:00:00 PM 6.8 44.24 0.061 7.18 5.71 11.71
3/23/2021 6:15:00 PM 6.72 44.096 0.061 7.16 5.69 11.7
3/23/2021 6:30:00 PM 6.64 43.952 0.061 7.13 5.63 11.68
3/23/2021 6:45:00 PM 6.55 43.79 0.061 7.11 5.86 11.67
3/23/2021 7:00:00 PM 6.46 43.628 0.061 7.1 6.01 11.68
3/23/2021 7:15:00 PM 6.38 43.484 0.061 7.07 6.01 11.68
3/23/2021 7:30:00 PM 6.3 43.34 0.061 7.07 5.97 11.69
3/23/2021 7:45:00 PM 6.22 43.196 0.061 7.06 5.97 11.72
3/23/2021 8:00:00 PM 6.15 43.07 0.061 7.06 5.9 11.73
3/23/2021 8:15:00 PM 6.08 42.944 0.061 7.05 5.96 11.76
3/23/2021 8:30:00 PM 6 42.8 0.061 7.04 6.01 11.78
3/23/2021 8:45:00 PM 5.92 42.656 0.061 7.04 6.1 11.79
3/23/2021 9:00:00 PM 5.84 42.512 0.062 7.04 6.15 11.82
3/23/2021 9:15:00 PM 5.77 42.386 0.062 7.04 5.96 11.84
3/23/2021 9:30:00 PM 5.71 42.278 0.062 7.02 6.21 11.86
3/23/2021 9:45:00 PM 5.65 42.17 0.062 7.02 5.9 11.88
3/23/2021 10:00:00 PM 5.58 42.044 0.061 7.03 5.95 11.9
3/23/2021 10:15:00 PM 5.51 41.918 0.062 7.03 5.85 11.92
3/23/2021 10:30:00 PM 5.44 41.792 0.062 7.03 5.91 11.94
3/23/2021 10:45:00 PM 5.37 41.666 0.062 7.02 6.08 11.96
3/23/2021 11:00:00 PM 5.31 41.558 0.062 7.02 5.96 11.98
3/23/2021 11:15:00 PM 5.26 41.468 0.062 7.01 5.8 12
3/23/2021 11:30:00 PM 5.2 41.36 0.062 7.01 5.66 12.01
3/23/2021 11:45:00 PM 5.15 41.27 0.062 7 5.8 12.03
3/24/2021 12:00:00 AM 5.11 41.198 0.061 6.82 5.8 12.04
3/24/2021 12:15:00 AM 5.06 41.108 0.061 6.94 5.71 12.06
3/24/2021 12:30:00 AM 5.02 41.036 0.062 7.01 5.62 12.07
3/24/2021 12:45:00 AM 4.99 40.982 0.062 7 5.68 12.08
3/24/2021 1:00:00 AM 4.96 40.928 0.062 7.01 5.64 12.09
3/24/2021 1:15:00 AM 4.93 40.874 0.062 7 5.64 12.1
3/24/2021 1:30:00 AM 4.9 40.82 0.062 7 5.62 12.11
3/24/2021 1:45:00 AM 4.89 40.802 0.062 7 5.84 12.11
3/24/2021 2:00:00 AM 4.88 40.784 0.062 7 5.64 12.12
3/24/2021 2:15:00 AM 4.87 40.766 0.062 7 5.8 12.12
3/24/2021 2:30:00 AM 4.87 40.766 0.062 7.01 5.61 12.12
3/24/2021 2:45:00 AM 4.87 40.766 0.062 7 5.7 12.12
3/24/2021 3:00:00 AM 4.87 40.766 0.062 7.01 5.6 12.12
3/24/2021 3:15:00 AM 4.87 40.766 0.062 7.01 5.71 12.12
3/24/2021 3:30:00 AM 4.86 40.748 0.062 7.02 5.62 12.12
3/24/2021 3:45:00 AM 4.87 40.766 0.062 7.01 5.62 12.12
3/24/2021 4:00:00 AM 4.87 40.766 0.062 7.02 5.68 12.12
3/24/2021 4:15:00 AM 4.88 40.784 0.062 7.02 5.64 12.12
3/24/2021 4:30:00 AM 4.89 40.802 0.062 7.02 5.65 12.11
3/24/2021 4:45:00 AM 4.9 40.82 0.062 7.02 5.57 12.11
3/24/2021 5:00:00 AM 4.91 40.838 0.062 7.01 5.69 12.1
3/24/2021 5:15:00 AM 4.93 40.874 0.062 7.01 5.7 12.1
3/24/2021 5:30:00 AM 4.94 40.892 0.062 7.02 5.67 12.09
3/24/2021 5:45:00 AM 4.96 40.928 0.062 7.02 5.67 12.09
3/24/2021 6:00:00 AM 4.98 40.964 0.062 7.02 5.61 12.08
3/24/2021 6:15:00 AM 5 41 0.061 7.02 5.67 12.08
3/24/2021 6:30:00 AM 5.01 41.018 0.061 7.02 5.72 12.08
3/24/2021 6:45:00 AM 5.03 41.054 0.061 7.02 5.85 12.07
3/24/2021 7:00:00 AM 5.05 41.09 0.061 7.03 5.63 12.08
3/24/2021 7:15:00 AM 5.07 41.126 0.061 7.02 5.7 12.08
3/24/2021 7:30:00 AM 5.09 41.162 0.061 7.02 5.78 12.09
3/24/2021 7:45:00 AM 5.11 41.198 0.061 7.03 5.77 12.07
3/24/2021 8:00:00 AM 5.14 41.252 0.061 7.05 5.93 12.11
3/24/2021 8:15:00 AM 5.17 41.306 0.06 7.06 6.09 12.12
3/24/2021 8:30:00 AM 5.2 41.36 0.06 7.06 6.35 12.15
3/24/2021 8:45:00 AM 5.24 41.432 0.06 7.07 6.67 12.17
3/24/2021 9:00:00 AM 5.28 41.504 0.061 7.08 6.89 12.18
3/24/2021 9:15:00 AM 5.32 41.576 0.061 7.1 7.29 12.19
3/24/2021 9:30:00 AM 5.37 41.666 0.061 7.11 7 12.2
3/24/2021 9:45:00 AM 5.43 41.774 0.061 7.12 7.5 12.19
3/24/2021 10:00:00 AM 5.48 41.864 0.061 7.14 7.95 12.18
3/24/2021 10:15:00 AM 5.52 41.936 0.061 7.14 7.49 12.16
3/26/2021 1:15:00 PM -99999.99 -179968 -99999.99 -99999.99 -99999.99 -99999.99
3/26/2021 1:30:00 PM -99999.99 -179968 -99999.99 -99999.99 -99999.99 -99999.99
3/26/2021 1:45:00 PM -99999.99 -179968 -99999.99 -99999.99 -99999.99 -99999.99
4/5/2021 2:30:00 PM 40521 72969.8 142937 1.61 0 80.89
4/5/2021 2:45:00 PM 40521 72969.8 144434 1.44 0 80.86
4/5/2021 3:00:00 PM 40521 72969.8 145937 1.37 0 80.82
4/5/2021 3:15:00 PM 40521 72969.8 151435 1.43 0 80.79
4/5/2021 3:30:00 PM 40521 72969.8 152937 1.5 0 80.77
4/5/2021 3:45:00 PM 40521 72969.8 154435 1.48 0 80.75
4/5/2021 4:00:00 PM 40521 72969.8 155937 1.5 0 80.71
4/5/2021 4:15:00 PM 40521 72969.8 161436 1.53 0 80.69
4/5/2021 4:30:00 PM 40521 72969.8 162938 1.4 0 80.69
4/5/2021 4:45:00 PM 40521 72969.8 164436 1.43 0 80.69
4/5/2021 5:00:00 PM 40521 72969.8 165938 1.36 0 80.65
4/5/2021 5:15:00 PM 40521 72969.8 171436 1.45 0 80.69
4/5/2021 5:30:00 PM 40521 72969.8 172939 1.41 0 80.76
4/5/2021 5:45:00 PM 40521 72969.8 174436 1.47 0 80.78
4/5/2021 6:00:00 PM 40521 72969.8 175938 1.42 0 80.84
4/5/2021 6:15:00 PM 40521 72969.8 181437 1.55 0 80.89
4/5/2021 6:30:00 PM 40521 72969.8 182935 1.65 0 80.94
4/5/2021 6:45:00 PM 40521 72969.8 184437 1.55 0 81.04
4/5/2021 7:00:00 PM 40521 72969.8 185934 1.56 0 81.11
4/5/2021 7:15:00 PM 40521 72969.8 191438 1.56 0 81.22
4/5/2021 7:30:00 PM 40521 72969.8 192935 1.66 0 81.33
4/5/2021 7:45:00 PM 40521 72969.8 194437 1.73 0 81.45
4/5/2021 8:00:00 PM 40521 72969.8 195935 1.61 0 81.57
4/5/2021 8:15:00 PM 40521 72969.8 201439 1.58 0 81.68
4/5/2021 8:30:00 PM 40521 72969.8 202936 1.81 0 81.77
4/5/2021 8:45:00 PM 40521 72969.8 204438 1.84 0 81.86
4/5/2021 9:00:00 PM 40521 72969.8 205936 1.84 0 81.96
4/5/2021 9:15:00 PM 40521 72969.8 211434 1.77 0 82.04
4/5/2021 9:30:00 PM 40521 72969.8 212936 1.9 0 82.12
4/5/2021 9:45:00 PM 40521 72969.8 214439 1.82 0 82.14
4/5/2021 10:00:00 PM 40521 72969.8 215936 1.7 0 82.21
4/5/2021 10:15:00 PM 40521 72969.8 221434 1.82 0 82.28
4/5/2021 10:30:00 PM 40521 72969.8 222937 1.78 0 82.33
4/5/2021 10:45:00 PM 40521 72969.8 224435 1.84 0 82.38
4/5/2021 11:00:00 PM 40521 72969.8 225937 1.84 0 82.43
4/5/2021 11:15:00 PM 40521 72969.8 231435 1.85 0 82.48
4/5/2021 11:30:00 PM 40521 72969.8 232938 1.74 0 82.54
4/5/2021 11:45:00 PM 40521 72969.8 234435 1.8 0 82.55
4/6/2021 12:00:00 AM 40521 72969.8 235937 1.73 0 82.64
4/6/2021 12:15:00 AM 40621 73149.8 1436 1.76 0 82.68
4/6/2021 12:30:00 AM 40621 73149.8 2939 1.81 0 82.75
4/6/2021 12:45:00 AM 40621 73149.8 4436 1.71 0 82.81
4/6/2021 1:00:00 AM 40621 73149.8 5938 1.76 0 82.87
4/6/2021 1:15:00 AM 40621 73149.8 11436 1.78 0 82.91
4/6/2021 1:30:00 AM 40621 73149.8 12934 1.71 0 82.94
4/6/2021 1:45:00 AM 40621 73149.8 14437 1.82 0 83
4/6/2021 2:00:00 AM 40621 73149.8 15938 1.96 0 83.03
4/6/2021 2:15:00 AM 40621 73149.8 21438 1.86 0 83.05
4/6/2021 2:30:00 AM 40621 73149.8 22935 1.9 0 83.09
4/6/2021 2:45:00 AM 40621 73149.8 24437 1.82 0 83.12
4/6/2021 3:00:00 AM 40621 73149.8 25934 1.89 0 83.16
4/6/2021 3:15:00 AM 40621 73149.8 31438 1.83 0 83.16
4/6/2021 3:30:00 AM 40621 73149.8 32935 1.82 0 83.2
4/6/2021 3:45:00 AM 40621 73149.8 34437 1.8 0 83.24
4/6/2021 4:00:00 AM 40621 73149.8 35934 1.93 0 83.26
4/6/2021 4:15:00 AM 40621 73149.8 41439 1.83 0 83.29
4/6/2021 4:30:00 AM 40621 73149.8 42938 1.85 0 83.33
4/6/2021 4:45:00 AM 40621 73149.8 44436 1.86 0 83.36
4/6/2021 5:00:00 AM 40621 73149.8 45938 1.97 0 83.4
4/6/2021 5:15:00 AM 40621 73149.8 51436 1.83 0 83.4
4/6/2021 5:30:00 AM 40621 73149.8 52934 1.85 0 83.46
4/6/2021 5:45:00 AM 40621 73149.8 54436 1.83 0 83.47
4/6/2021 6:00:00 AM 40621 73149.8 55938 1.78 0 83.48
4/6/2021 6:15:00 AM 40621 73149.8 61437 1.85 0 83.5
4/6/2021 6:30:00 AM 40621 73149.8 62935 1.8 0 83.54
4/6/2021 6:45:00 AM 40621 73149.8 64437 1.84 0 83.55
4/6/2021 7:00:00 AM 40621 73149.8 65934 1.89 0 83.53
4/6/2021 7:15:00 AM 40621 73149.8 71438 1.9 0 83.52
4/6/2021 7:30:00 AM 40621 73149.8 72935 1.97 0 83.5
4/6/2021 7:45:00 AM 40621 73149.8 74437 1.9 0 83.44
4/6/2021 8:00:00 AM 40621 73149.8 75934 2.03 0 83.37
4/6/2021 8:15:00 AM 40621 73149.8 81434 1.86 0 83.28
4/6/2021 8:30:00 AM 40621 73149.8 82936 1.88 0 83.21
4/6/2021 8:45:00 AM 40621 73149.8 84438 1.82 0 83.12
4/6/2021 9:00:00 AM 40621 73149.8 85935 1.79 0 83
4/6/2021 9:15:00 AM 40621 73149.8 91434 1.78 0 82.89
4/6/2021 9:30:00 AM 40621 73149.8 92936 1.8 0 82.79
4/6/2021 9:45:00 AM 40621 73149.8 94438 1.75 0 82.66
4/6/2021 10:00:00 AM 40621 73149.8 95936 1.8 0 82.56
4/6/2021 10:15:00 AM 40621 73149.8 101435 1.8 0 82.47
4/6/2021 10:30:00 AM 40621 73149.8 102937 1.74 0 82.37
4/6/2021 10:45:00 AM 40621 73149.8 104434 1.74 0 82.26
4/6/2021 11:00:00 AM 40621 73149.8 105937 1.75 0 82.14
4/6/2021 11:15:00 AM 40621 73149.8 111435 1.72 0 82.04
4/6/2021 11:30:00 AM 40621 73149.8 112937 1.76 0 81.96
4/6/2021 11:45:00 AM 40621 73149.8 114434 1.77 0 81.88
4/6/2021 12:00:00 PM 40621 73149.8 115937 1.71 0 81.79
4/6/2021 12:15:00 PM 40621 73149.8 121436 1.87 0 81.74
4/6/2021 12:30:00 PM 40621 73149.8 122938 1.77 0 81.66
4/6/2021 12:45:00 PM 40621 73149.8 124436 1.69 0 81.57
4/6/2021 1:00:00 PM 40621 73149.8 125938 1.68 0 81.5
4/6/2021 1:15:00 PM 40621 73149.8 131436 1.79 0 81.5
4/6/2021 1:30:00 PM 40621 73149.8 132933 1.9 0 81.38
4/6/2021 1:45:00 PM 40621 73149.8 134436 1.8 0 81.39
4/6/2021 2:00:00 PM 40621 73149.8 135938 1.77 0 81.34
4/6/2021 2:15:00 PM 40621 73149.8 141437 1.85 0 81.29
4/6/2021 2:30:00 PM 40621 73149.8 142935 1.82 0 81.28
4/6/2021 2:45:00 PM 40621 73149.8 144437 1.98 0 81.25
4/6/2021 3:00:00 PM 40621 73149.8 145934 1.78 0 81.23
4/6/2021 3:15:00 PM 40621 73149.8 151438 1.85 0 81.22
4/6/2021 3:30:00 PM 40621 73149.8 152935 1.87 0 81.23
4/6/2021 3:45:00 PM 40621 73149.8 154437 1.87 0 81.18
4/6/2021 4:00:00 PM 40621 73149.8 155934 1.85 0 81.18
4/6/2021 4:15:00 PM 40621 73149.8 161434 1.92 0 81.17
4/6/2021 4:30:00 PM 40621 73149.8 162936 1.92 0 81.18
4/6/2021 4:45:00 PM 40621 73149.8 164433 1.94 0 81.19
4/6/2021 5:00:00 PM 40621 73149.8 165935 1.95 0 81.23
4/6/2021 5:15:00 PM 40621 73149.8 171434 1.92 0 81.24
4/6/2021 5:30:00 PM 40621 73149.8 172936 1.99 0 81.28
4/6/2021 5:45:00 PM 40621 73149.8 174433 1.92 0 81.35
4/6/2021 6:00:00 PM 40621 73149.8 175936 2.03 0 81.38
4/6/2021 6:15:00 PM 40621 73149.8 181435 2.04 0 81.45
4/6/2021 6:30:00 PM 40621 73149.8 182938 2.09 0 81.54
4/6/2021 6:45:00 PM 40621 73149.8 184435 1.95 0 81.57
4/6/2021 7:00:00 PM 40621 73149.8 185937 2.06 0 81.68
4/6/2021 7:15:00 PM 40621 73149.8 191435 1.94 0 81.8
4/6/2021 7:30:00 PM 40621 73149.8 192938 1.97 0 81.95
4/6/2021 7:45:00 PM 40621 73149.8 194435 1.93 0 82.11
4/6/2021 8:00:00 PM 40621 73149.8 195937 2.09 0 82.27
4/6/2021 8:15:00 PM 40621 73149.8 201437 2.08 0 82.42
4/6/2021 8:30:00 PM 40621 73149.8 202934 2.02 0 82.54
4/6/2021 8:45:00 PM 40621 73149.8 204436 2.11 0 82.68
4/6/2021 9:00:00 PM 40621 73149.8 205933 2.06 0 82.82
4/6/2021 9:15:00 PM 40621 73149.8 211437 2.19 0 82.93
4/6/2021 9:30:00 PM 40621 73149.8 212934 2.15 0 83.06
4/6/2021 9:45:00 PM 40621 73149.8 214436 2.15 0 83.13
4/6/2021 10:00:00 PM 40621 73149.8 215934 2.16 0 83.23
4/6/2021 10:15:00 PM 40621 73149.8 221438 2.13 0 83.31
4/6/2021 10:30:00 PM 40621 73149.8 222935 2 0 83.39
4/6/2021 10:45:00 PM 40621 73149.8 224437 2.09 0 83.45
4/6/2021 11:00:00 PM 40621 73149.8 225935 1.99 0 83.5
4/6/2021 11:15:00 PM 40621 73149.8 231433 1.93 0 83.57
4/6/2021 11:30:00 PM 40621 73149.8 232935 2.04 0 83.6
4/6/2021 11:45:00 PM 40621 73149.8 234438 1.98 0 83.65
4/7/2021 12:00:00 AM 40621 73149.8 235935 2.1 0 83.71
4/7/2021 12:15:00 AM 40721 73329.8 1434 2.05 0 83.76
4/7/2021 12:30:00 AM 40721 73329.8 2936 2.48 0 83.79
4/7/2021 12:45:00 AM 40721 73329.8 4434 1.89 0 83.81
4/7/2021 1:00:00 AM 40721 73329.8 5936 1.9 0 83.85
4/7/2021 1:15:00 AM 40721 73329.8 11434 1.88 0 83.88
4/7/2021 1:30:00 AM 40721 73329.8 12937 1.85 0 83.93
4/7/2021 1:45:00 AM 40721 73329.8 14434 1.99 0 83.94
4/7/2021 2:00:00 AM 40721 73329.8 15936 1.92 0 83.98
4/7/2021 2:15:00 AM 40721 73329.8 21435 1.9 0 83.97
4/7/2021 2:30:00 AM 40721 73329.8 22938 1.84 0 84
4/7/2021 2:45:00 AM 40721 73329.8 24435 1.82 0 84.01
4/7/2021 3:00:00 AM 40721 73329.8 25937 1.91 0 84.02
4/7/2021 3:15:00 AM 40721 73329.8 31436 2 0 84.03
4/7/2021 3:30:00 AM 40721 73329.8 32933 1.89 0 84.04
4/7/2021 3:45:00 AM 40721 73329.8 34435 1.91 0 84.05
4/7/2021 4:00:00 AM 40721 73329.8 35937 1.99 0 84.05
4/7/2021 4:15:00 AM 40721 73329.8 41437 2.05 0 84.07
4/7/2021 4:30:00 AM 40721 73329.8 42934 1.99 0 84.06
4/7/2021 4:45:00 AM 40721 73329.8 44436 1.96 0 84.03
4/7/2021 5:00:00 AM 40721 73329.8 45933 2.08 0 84.02
4/7/2021 5:15:00 AM 40721 73329.8 51437 1.96 0 83.98
4/7/2021 5:30:00 AM 40721 73329.8 52934 2.16 0 83.96
4/7/2021 5:45:00 AM 40721 73329.8 54436 2.01 0 83.94
4/7/2021 6:00:00 AM 40721 73329.8 55934 2.02 0 83.92
4/7/2021 6:15:00 AM 40721 73329.8 61433 1.99 0 83.9
4/7/2021 6:30:00 AM 40721 73329.8 62935 2.06 0 83.93
4/7/2021 6:45:00 AM 40721 73329.8 64437 2.06 0 83.93
4/7/2021 7:00:00 AM 40721 73329.8 65935 2.06 0 83.96
4/7/2021 7:15:00 AM 40721 73329.8 71433 2.1 0 83.96
4/7/2021 7:30:00 AM 40721 73329.8 72935 2.08 0 83.97
4/7/2021 7:45:00 AM 40721 73329.8 74438 2.02 0 83.92
4/7/2021 8:00:00 AM 40721 73329.8 75935 2 0 83.81
4/7/2021 8:15:00 AM 40721 73329.8 81434 2 0 83.78
4/7/2021 8:30:00 AM 40721 73329.8 82936 2.18 0 83.71
4/7/2021 8:45:00 AM 40721 73329.8 84434 2.08 0 83.61
4/7/2021 9:00:00 AM 40721 73329.8 85936 2 0 83.56
4/7/2021 9:15:00 AM 40721 73329.8 91434 1.97 0 83.48
4/7/2021 9:30:00 AM 40721 73329.8 92937 1.99 0 83.38
4/7/2021 9:45:00 AM 40721 73329.8 94434 2.19 0 83.28
4/7/2021 10:00:00 AM 40721 73329.8 95936 2.26 0 83.18
4/7/2021 10:15:00 AM 40721 73329.8 101435 2.41 0 83.13
4/7/2021 10:30:00 AM 40721 73329.8 102933 2.11 0 83.06
4/7/2021 10:45:00 AM 40721 73329.8 104435 2.03 0 82.98
4/7/2021 11:00:00 AM 40721 73329.8 105937 1.95 0 82.92
4/7/2021 11:15:00 AM 40721 73329.8 111434 1.97 0 82.84
4/7/2021 11:30:00 AM 40721 73329.8 112933 1.92 0 82.79
4/7/2021 11:45:00 AM 40721 73329.8 114435 2 0 82.72
4/7/2021 12:00:00 PM 40721 73329.8 115937 2.03 0 82.68
4/7/2021 12:15:00 PM 40721 73329.8 121437 2.07 0 82.61
4/7/2021 12:30:00 PM 40721 73329.8 122934 1.98 0 82.55
4/7/2021 12:45:00 PM 40721 73329.8 124436 2.04 0 82.51
4/7/2021 1:00:00 PM 40721 73329.8 125933 2.08 0 82.47
4/7/2021 1:15:00 PM 40721 73329.8 131437 1.98 0 82.42
4/7/2021 1:30:00 PM 40721 73329.8 132934 2 0 82.42
4/7/2021 1:45:00 PM 40721 73329.8 134436 2.07 0 82.38
4/7/2021 2:00:00 PM 40721 73329.8 135934 1.92 0 82.34
4/7/2021 2:15:00 PM 40721 73329.8 141433 2 0 82.34
4/7/2021 2:30:00 PM 40721 73329.8 142935 2.07 0 82.33
4/7/2021 2:45:00 PM 40721 73329.8 144433 2.01 0 82.31
4/7/2021 3:00:00 PM 40721 73329.8 145935 1.98 0 82.3
4/7/2021 3:15:00 PM 40721 73329.8 151433 1.95 0 82.27
4/7/2021 3:30:00 PM 40721 73329.8 152935 2.1 0 82.25
4/7/2021 3:45:00 PM 40721 73329.8 154433 2.03 0 82.24
4/7/2021 4:00:00 PM -99999.99 -179968 -99999.99 -99999.99 -99999.99 -99999.99
4/7/2021 4:15:00 PM -99999.99 -179968 -99999.99 -99999.99 -99999.99 -99999.99
4/7/2021 4:30:00 PM -99999.99 -179968 -99999.99 -99999.99 -99999.99 -99999.99
4/7/2021 4:45:00 PM -99999.99 -179968 -99999.99 -99999.99 -99999.99 -99999.99
4/7/2021 5:00:00 PM -99999.99 -179968 -99999.99 -99999.99 -99999.99 -99999.99
4/7/2021 5:15:00 PM -99999.99 -179968 -99999.99 -99999.99 -99999.99 -99999.99
4/7/2021 5:30:00 PM -99999.99 -179968 -99999.99 -99999.99 -99999.99 -99999.99
4/7/2021 5:45:00 PM -99999.99 -179968 -99999.99 -99999.99 -99999.99 -99999.99
4/7/2021 6:00:00 PM -99999.99 -179968 -99999.99 -99999.99 -99999.99 -99999.99
4/7/2021 6:15:00 PM -99999.99 -179968 -99999.99 -99999.99 -99999.99 -99999.99
4/7/2021 6:30:00 PM -99999.99 -179968 -99999.99 -99999.99 -99999.99 -99999.99
4/7/2021 6:45:00 PM -99999.99 -179968 -99999.99 -99999.99 -99999.99 -99999.99
4/7/2021 7:00:00 PM -99999.99 -179968 -99999.99 -99999.99 -99999.99 -99999.99
4/7/2021 7:15:00 PM -99999.99 -179968 -99999.99 -99999.99 -99999.99 -99999.99
4/7/2021 7:30:00 PM -99999.99 -179968 -99999.99 -99999.99 -99999.99 -99999.99
4/7/2021 7:45:00 PM -99999.99 -179968 -99999.99 -99999.99 -99999.99 -99999.99
4/7/2021 8:00:00 PM -99999.99 -179968 -99999.99 -99999.99 -99999.99 -99999.99
4/7/2021 8:15:00 PM -99999.99 -179968 -99999.99 -99999.99 -99999.99 -99999.99
4/7/2021 8:30:00 PM -99999.99 -179968 -99999.99 -99999.99 -99999.99 -99999.99
4/7/2021 8:45:00 PM -99999.99 -179968 -99999.99 -99999.99 -99999.99 -99999.99
4/7/2021 9:00:00 PM -99999.99 -179968 -99999.99 -99999.99 -99999.99 -99999.99
4/7/2021 9:15:00 PM -99999.99 -179968 -99999.99 -99999.99 -99999.99 -99999.99

These are provisional data and have not been subject to a quality assurance process, but rather are the raw data reported by the instrument.
H: value is above sensor operating range
L: value is below sensor operating range
Offline: station is not reporting data
NC: parameter is not collected at site

Data Availability & Limitations

Uncertainty and potential for error can be associated with environmental monitoring data. Provisional data have not been subject to a quality assurance process, but rather are the raw data reported by the instrument. Data users are cautioned to consider carefully the provisional nature of the information before using it for decisions that concern personal or public safety or the conduct of business that involves substantial monetary or operational consequences.

Approved data are currently available by request by emailing: srbc@srbc.net. Approved data have been subject to a quality assurance process to correct for equipment or fouling drift. Data recorded during equipment malfunctions have been removed.

View Historical Stations that have been discontinued.